Time,TemperatureF,DewpointF,PressureIn,WindDirection,WindDirectionDegrees,WindSpeedMPH,WindSpeedGustMPH,Humidity,HourlyPrecipIn,Conditions,Clouds,dailyrainin,SoftwareType,DateUTC
2013-02-05 00:01:00,4.5,1.7,29.89,South,181,0.0,0.0,88,0.00,RA,,0.00,WeatherDisplay:10.37,2013-02-05 06:01:00,
2013-02-05 00:02:00,4.5,1.7,29.89,South,181,0.0,0.0,88,0.00,RA,,0.00,WeatherDisplay:10.37,2013-02-05 06:02:00,
2013-02-05 00:03:00,4.4,1.6,29.89,South,181,0.0,0.0,88,0.00,RA,,0.00,WeatherDisplay:10.37,2013-02-05 06:03:00,
2013-02-05 00:06:00,4.4,1.6,29.89,South,181,0.0,0.0,88,0.00,RA,,0.00,WeatherDisplay:10.37,2013-02-05 06:06:00,
2013-02-05 00:07:00,4.4,1.6,29.89,South,181,0.0,0.0,88,0.00,RA,,0.00,WeatherDisplay:10.37,2013-02-05 06:07:00,
2013-02-05 00:08:00,4.4,1.6,29.89,South,181,0.0,0.0,88,0.00,RA,,0.00,WeatherDisplay:10.37,2013-02-05 06:08:00,
2013-02-05 00:11:00,4.4,1.6,29.88,South,181,0.0,0.0,88,0.00,CLR,,0.00,WeatherDisplay:10.37,2013-02-05 06:11:00,
2013-02-05 00:12:00,4.3,1.5,29.89,South,181,0.0,0.0,88,0.00,CLR,,0.00,WeatherDisplay:10.37,2013-02-05 06:12:00,
2013-02-05 00:13:00,4.4,1.6,29.89,South,181,0.0,0.0,88,0.00,CLR,,0.00,WeatherDisplay:10.37,2013-02-05 06:13:00,
2013-02-05 00:16:00,4.3,1.5,29.89,South,181,0.0,0.0,88,0.00,CLR,,0.00,WeatherDisplay:10.37,2013-02-05 06:16:00,
2013-02-05 00:17:00,4.3,1.5,29.89,South,181,0.0,0.0,88,0.00,CLR,,0.00,WeatherDisplay:10.37,2013-02-05 06:17:00,
2013-02-05 00:18:00,4.3,1.5,29.89,South,181,0.0,0.0,88,0.00,CLR,,0.00,WeatherDisplay:10.37,2013-02-05 06:18:00,
2013-02-05 00:21:00,4.3,1.8,29.88,South,181,0.0,0.0,89,0.00,CLR,,0.00,WeatherDisplay:10.37,2013-02-05 06:21:00,
2013-02-05 00:22:00,4.5,2.0,29.88,South,181,0.0,0.0,89,0.00,CLR,,0.00,WeatherDisplay:10.37,2013-02-05 06:22:00,
2013-02-05 00:23:00,4.3,1.8,29.88,South,181,0.0,0.0,89,0.00,CLR,,0.00,WeatherDisplay:10.37,2013-02-05 06:23:00,
2013-02-05 00:26:00,4.5,2.0,29.88,South,181,0.0,0.0,89,0.00,CLR,,0.00,WeatherDisplay:10.37,2013-02-05 06:26:00,
2013-02-05 00:27:00,4.5,2.0,29.88,South,181,0.0,0.0,89,0.00,CLR,,0.00,WeatherDisplay:10.37,2013-02-05 06:27:00,
2013-02-05 00:28:00,4.6,2.1,29.88,South,181,0.0,0.0,89,0.00,CLR,,0.00,WeatherDisplay:10.37,2013-02-05 06:28:00,
2013-02-05 00:31:00,4.8,2.3,29.88,South,181,0.0,0.0,89,0.00,CLR,,0.00,WeatherDisplay:10.37,2013-02-05 06:31:00,
2013-02-05 00:32:00,4.7,2.2,29.88,South,181,0.0,0.0,89,0.00,CLR,,0.00,WeatherDisplay:10.37,2013-02-05 06:32:00,
2013-02-05 00:33:00,4.7,2.2,29.88,South,181,0.0,0.0,89,0.00,CLR,,0.00,WeatherDisplay:10.37,2013-02-05 06:33:00,
2013-02-05 00:36:00,4.7,2.2,29.88,South,181,0.0,0.0,89,0.00,CLR,,0.00,WeatherDisplay:10.37,2013-02-05 06:36:00,
2013-02-05 00:37:00,4.7,2.2,29.88,South,181,0.0,0.0,89,0.00,CLR,,0.00,WeatherDisplay:10.37,2013-02-05 06:37:00,
2013-02-05 00:38:00,4.7,2.2,29.87,South,181,0.0,0.0,89,0.00,CLR,,0.00,WeatherDisplay:10.37,2013-02-05 06:38:00,
2013-02-05 00:42:00,4.4,1.9,29.87,South,181,0.0,0.0,89,0.00,CLR,,0.00,WeatherDisplay:10.37,2013-02-05 06:42:00,
2013-02-05 00:43:00,4.6,2.1,29.87,South,181,0.0,0.0,89,0.00,CLR,,0.00,WeatherDisplay:10.37,2013-02-05 06:43:00,
2013-02-05 00:47:00,4.5,2.0,29.87,South,181,0.0,0.0,89,0.00,CLR,,0.00,WeatherDisplay:10.37,2013-02-05 06:47:00,
2013-02-05 00:48:00,4.5,2.0,29.87,South,181,0.0,0.0,89,0.00,CLR,,0.00,WeatherDisplay:10.37,2013-02-05 06:48:00,
2013-02-05 00:52:00,4.3,1.8,29.87,South,181,0.0,0.0,89,0.00,CLR,,0.00,WeatherDisplay:10.37,2013-02-05 06:52:00,
2013-02-05 00:53:00,4.4,1.9,29.87,South,181,0.0,0.0,89,0.00,CLR,,0.00,WeatherDisplay:10.37,2013-02-05 06:53:00,
2013-02-05 00:54:00,4.3,1.8,29.87,South,181,0.0,0.0,89,0.00,CLR,,0.00,WeatherDisplay:10.37,2013-02-05 06:54:00,
2013-02-05 00:57:00,4.2,1.7,29.87,South,181,0.0,0.0,89,0.00,CLR,,0.00,WeatherDisplay:10.37,2013-02-05 06:57:00,
2013-02-05 00:58:00,4.4,1.9,29.87,South,181,0.0,0.0,89,0.00,CLR,,0.00,WeatherDisplay:10.37,2013-02-05 06:58:00,
2013-02-05 00:59:00,4.0,1.5,29.87,South,181,0.0,0.0,89,0.00,CLR,,0.00,WeatherDisplay:10.37,2013-02-05 06:59:00,
2013-02-05 01:02:00,3.9,1.1,29.86,South,181,0.0,0.0,88,0.00,CLR,,0.00,WeatherDisplay:10.37,2013-02-05 07:02:00,
2013-02-05 01:03:00,4.0,1.2,29.86,South,181,0.0,0.0,88,0.00,CLR,,0.00,WeatherDisplay:10.37,2013-02-05 07:03:00,
2013-02-05 01:04:00,4.0,1.2,29.86,South,181,0.0,0.0,88,0.00,CLR,,0.00,WeatherDisplay:10.37,2013-02-05 07:04:00,
2013-02-05 01:07:00,3.7,0.9,29.87,South,181,0.0,0.0,88,0.00,CLR,,0.00,WeatherDisplay:10.37,2013-02-05 07:07:00,
2013-02-05 01:08:00,3.8,1.0,29.87,South,181,0.0,0.0,88,0.00,CLR,,0.00,WeatherDisplay:10.37,2013-02-05 07:08:00,
2013-02-05 01:09:00,3.6,0.8,29.87,South,181,0.0,0.0,88,0.00,CLR,,0.00,WeatherDisplay:10.37,2013-02-05 07:09:00,
2013-02-05 01:13:00,3.3,0.5,29.86,South,181,0.0,0.0,88,0.00,CLR,,0.00,WeatherDisplay:10.37,2013-02-05 07:13:00,
2013-02-05 01:14:00,3.2,0.4,29.86,South,181,0.0,0.0,88,0.00,CLR,,0.00,WeatherDisplay:10.37,2013-02-05 07:14:00,
2013-02-05 01:18:00,3.1,0.3,29.86,South,181,0.0,0.0,88,0.00,CLR,,0.00,WeatherDisplay:10.37,2013-02-05 07:18:00,
2013-02-05 01:19:00,3.1,0.3,29.86,South,181,0.0,0.0,88,0.00,CLR,,0.00,WeatherDisplay:10.37,2013-02-05 07:19:00,
2013-02-05 01:20:00,3.1,0.3,29.86,South,181,0.0,0.0,88,0.00,CLR,,0.00,WeatherDisplay:10.37,2013-02-05 07:20:00,
2013-02-05 01:23:00,2.9,0.2,29.86,South,181,0.0,0.0,88,0.00,CLR,,0.00,WeatherDisplay:10.37,2013-02-05 07:23:00,
2013-02-05 01:24:00,2.8,0.1,29.86,South,181,0.0,0.0,88,0.00,CLR,,0.00,WeatherDisplay:10.37,2013-02-05 07:24:00,
2013-02-05 01:25:00,2.8,0.1,29.86,South,181,0.0,0.0,88,0.00,CLR,,0.00,WeatherDisplay:10.37,2013-02-05 07:25:00,
2013-02-05 01:28:00,2.6,-0.1,29.86,South,181,0.0,0.0,88,0.00,CLR,,0.00,WeatherDisplay:10.37,2013-02-05 07:28:00,
2013-02-05 01:29:00,2.6,-0.1,29.86,South,181,0.0,0.0,88,0.00,CLR,,0.00,WeatherDisplay:10.37,2013-02-05 07:29:00,
2013-02-05 01:30:00,2.6,0.1,29.86,South,181,0.0,0.0,89,0.00,CLR,,0.00,WeatherDisplay:10.37,2013-02-05 07:30:00,
2013-02-05 01:33:00,2.5,0.0,29.86,South,181,0.0,0.0,89,0.00,CLR,,0.00,WeatherDisplay:10.37,2013-02-05 07:33:00,
2013-02-05 01:34:00,2.5,0.0,29.86,South,181,0.0,0.0,89,0.00,CLR,,0.00,WeatherDisplay:10.37,2013-02-05 07:34:00,
2013-02-05 01:36:00,2.5,0.0,29.86,South,181,0.0,0.0,89,0.00,CLR,,0.00,WeatherDisplay:10.37,2013-02-05 07:36:00,
2013-02-05 01:39:00,2.3,-0.2,29.86,South,181,0.0,0.0,89,0.00,CLR,,0.00,WeatherDisplay:10.37,2013-02-05 07:39:00,
2013-02-05 01:41:00,2.3,-0.2,29.86,South,181,0.0,0.0,89,0.00,CLR,,0.00,WeatherDisplay:10.37,2013-02-05 07:41:00,
2013-02-05 01:44:00,2.2,-0.3,29.86,South,181,0.0,0.0,89,0.00,CLR,,0.00,WeatherDisplay:10.37,2013-02-05 07:44:00,
2013-02-05 01:46:00,2.2,-0.3,29.86,South,181,0.0,0.0,89,0.00,CLR,,0.00,WeatherDisplay:10.37,2013-02-05 07:46:00,
2013-02-05 01:49:00,2.0,-0.5,29.86,South,181,0.0,0.0,89,0.00,CLR,,0.00,WeatherDisplay:10.37,2013-02-05 07:49:00,
2013-02-05 01:51:00,2.0,-0.5,29.85,South,181,0.0,0.0,89,0.00,CLR,,0.00,WeatherDisplay:10.37,2013-02-05 07:51:00,
2013-02-05 01:54:00,1.9,-0.6,29.85,South,181,0.0,0.0,89,0.00,CLR,,0.00,WeatherDisplay:10.37,2013-02-05 07:54:00,
2013-02-05 01:56:00,1.7,-0.8,29.85,South,181,0.0,0.0,89,0.00,CLR,,0.00,WeatherDisplay:10.37,2013-02-05 07:56:00,
2013-02-05 01:59:00,1.9,-0.6,29.85,South,181,0.0,0.0,89,0.00,CLR,,0.00,WeatherDisplay:10.37,2013-02-05 07:59:00,
2013-02-05 02:00:00,1.7,-0.8,29.85,South,181,0.0,0.0,89,0.00,CLR,,0.00,WeatherDisplay:10.37,2013-02-05 08:00:00,
2013-02-05 02:01:00,1.8,-0.5,29.85,South,181,0.0,0.0,90,0.00,CLR,,0.00,WeatherDisplay:10.37,2013-02-05 08:01:00,
2013-02-05 02:04:00,2.0,-0.3,29.85,South,181,0.0,0.0,90,0.00,CLR,,0.00,WeatherDisplay:10.37,2013-02-05 08:04:00,
2013-02-05 02:05:00,2.0,-0.3,29.85,South,181,0.0,0.0,90,0.00,CLR,,0.00,WeatherDisplay:10.37,2013-02-05 08:05:00,
2013-02-05 02:07:00,2.1,-0.2,29.85,South,181,0.0,0.0,90,0.00,CLR,,0.00,WeatherDisplay:10.37,2013-02-05 08:07:00,
2013-02-05 02:09:00,2.1,-0.2,29.85,South,181,0.0,0.0,90,0.00,CLR,,0.00,WeatherDisplay:10.37,2013-02-05 08:09:00,
2013-02-05 02:10:00,2.2,-0.1,29.85,South,181,0.0,0.0,90,0.00,CLR,,0.00,WeatherDisplay:10.37,2013-02-05 08:10:00,
2013-02-05 02:12:00,2.3,0.0,29.85,South,181,0.0,0.0,90,0.00,CLR,,0.00,WeatherDisplay:10.37,2013-02-05 08:12:00,
2013-02-05 02:15:00,2.4,0.1,29.85,South,181,0.0,0.0,90,0.00,CLR,,0.00,WeatherDisplay:10.37,2013-02-05 08:15:00,
2013-02-05 02:17:00,2.6,0.6,29.85,South,181,0.0,0.0,91,0.00,CLR,,0.00,WeatherDisplay:10.37,2013-02-05 08:17:00,
2013-02-05 02:20:00,2.5,0.5,29.85,South,181,0.0,0.0,91,0.00,CLR,,0.00,WeatherDisplay:10.37,2013-02-05 08:20:00,
2013-02-05 02:22:00,2.7,0.7,29.84,South,181,0.0,0.0,91,0.00,CLR,,0.00,WeatherDisplay:10.37,2013-02-05 08:22:00,
2013-02-05 02:25:00,2.8,0.8,29.85,SSW,203,0.5,1.6,91,0.00,CLR,,0.00,WeatherDisplay:10.37,2013-02-05 08:25:00,
2013-02-05 02:27:00,2.9,0.9,29.85,SW,217,0.0,1.1,91,0.00,CLR,,0.00,WeatherDisplay:10.37,2013-02-05 08:27:00,
2013-02-05 02:30:00,3.1,1.1,29.85,SW,217,0.0,0.0,91,0.00,CLR,,0.00,WeatherDisplay:10.37,2013-02-05 08:30:00,
2013-02-05 02:32:00,3.2,1.2,29.85,SW,217,0.0,0.0,91,0.00,CLR,,0.00,WeatherDisplay:10.37,2013-02-05 08:32:00,
2013-02-05 02:35:00,3.3,1.3,29.85,SW,217,0.0,0.0,91,0.00,CLR,,0.00,WeatherDisplay:10.37,2013-02-05 08:35:00,
2013-02-05 02:36:00,3.3,1.3,29.85,SW,217,0.0,0.0,91,0.00,CLR,,0.00,WeatherDisplay:10.37,2013-02-05 08:36:00,
2013-02-05 02:37:00,3.4,1.4,29.85,SSW,205,2.9,3.5,91,0.00,CLR,,0.00,WeatherDisplay:10.37,2013-02-05 08:37:00,
2013-02-05 02:40:00,3.6,1.6,29.85,SSW,210,3.1,3.5,91,0.00,CLR,,0.00,WeatherDisplay:10.37,2013-02-05 08:40:00,
2013-02-05 02:41:00,3.6,1.6,29.85,SW,227,3.2,4.6,91,0.00,CLR,,0.00,WeatherDisplay:10.37,2013-02-05 08:41:00,
2013-02-05 02:43:00,3.8,2.0,29.85,SSW,212,1.6,3.5,92,0.00,CLR,,0.00,WeatherDisplay:10.37,2013-02-05 08:43:00,
2013-02-05 02:46:00,3.9,2.1,29.85,West,268,2.4,3.5,92,0.00,CLR,,0.00,WeatherDisplay:10.37,2013-02-05 08:46:00,
2013-02-05 02:48:00,4.2,2.4,29.85,WSW,246,1.5,2.3,92,0.00,CLR,,0.00,WeatherDisplay:10.37,2013-02-05 08:48:00,
2013-02-05 02:51:00,4.4,2.6,29.85,SW,232,0.0,2.3,92,0.00,CLR,,0.00,WeatherDisplay:10.37,2013-02-05 08:51:00,
2013-02-05 02:53:00,4.4,2.6,29.85,SW,234,1.8,3.5,92,0.00,CLR,,0.00,WeatherDisplay:10.37,2013-02-05 08:53:00,
2013-02-05 02:56:00,4.7,2.7,29.85,SSW,198,0.0,0.0,91,0.00,CLR,,0.00,WeatherDisplay:10.37,2013-02-05 08:56:00,
2013-02-05 02:57:00,4.7,2.7,29.85,SSW,198,0.0,0.0,91,0.00,CLR,,0.00,WeatherDisplay:10.37,2013-02-05 08:57:00,
2013-02-05 02:58:00,4.7,2.7,29.84,SSW,198,0.0,0.0,91,0.00,CLR,,0.00,WeatherDisplay:10.37,2013-02-05 08:58:00,
2013-02-05 03:01:00,5.0,2.9,29.84,SW,227,3.0,4.6,91,0.00,CLR,,0.00,WeatherDisplay:10.37,2013-02-05 09:01:00,
2013-02-05 03:02:00,4.9,2.8,29.84,SW,233,3.1,4.6,91,0.00,CLR,,0.00,WeatherDisplay:10.37,2013-02-05 09:02:00,
2013-02-05 03:03:00,5.1,3.0,29.84,West,267,2.8,4.6,91,0.00,CLR,,0.00,WeatherDisplay:10.37,2013-02-05 09:03:00,
2013-02-05 03:06:00,5.2,3.1,29.84,WSW,237,2.2,4.6,91,0.00,CLR,,0.00,WeatherDisplay:10.37,2013-02-05 09:06:00,
2013-02-05 03:07:00,5.1,3.0,29.84,SW,223,2.4,3.9,91,0.00,CLR,,0.00,WeatherDisplay:10.37,2013-02-05 09:07:00,
2013-02-05 03:09:00,5.3,3.2,29.84,SW,234,2.7,3.7,91,0.00,CLR,,0.00,WeatherDisplay:10.37,2013-02-05 09:09:00,
2013-02-05 03:11:00,5.4,3.3,29.84,SW,220,2.8,4.6,91,0.00,CLR,,0.00,WeatherDisplay:10.37,2013-02-05 09:11:00,
2013-02-05 03:12:00,5.4,3.3,29.84,WSW,244,3.2,4.6,91,0.00,CLR,,0.00,WeatherDisplay:10.37,2013-02-05 09:12:00,
2013-02-05 03:14:00,5.5,3.4,29.84,SW,223,3.1,3.9,91,0.00,CLR,,0.00,WeatherDisplay:10.37,2013-02-05 09:14:00,
2013-02-05 03:17:00,5.7,3.6,29.84,SW,232,3.1,3.5,91,0.00,CLR,,0.00,WeatherDisplay:10.37,2013-02-05 09:17:00,
2013-02-05 03:19:00,6.0,3.9,29.84,SW,217,3.1,4.6,91,0.00,CLR,,0.00,WeatherDisplay:10.37,2013-02-05 09:19:00,
2013-02-05 03:22:00,6.2,4.1,29.83,West,268,3.0,4.6,91,0.00,CLR,,0.00,WeatherDisplay:10.37,2013-02-05 09:22:00,
2013-02-05 03:25:00,6.5,4.4,29.83,SSW,212,2.9,4.6,91,0.00,CLR,,0.00,WeatherDisplay:10.37,2013-02-05 09:25:00,
2013-02-05 03:27:00,6.5,4.4,29.83,SW,233,1.9,4.6,91,0.00,CLR,,0.00,WeatherDisplay:10.37,2013-02-05 09:27:00,
2013-02-05 03:28:00,6.5,4.4,29.83,WNW,292,1.8,2.9,91,0.00,CLR,,0.00,WeatherDisplay:10.37,2013-02-05 09:28:00,
2013-02-05 03:30:00,6.7,4.6,29.83,SW,219,1.4,5.8,91,0.00,CLR,,0.00,WeatherDisplay:10.37,2013-02-05 09:30:00,
2013-02-05 03:32:00,6.8,4.7,29.83,WSW,237,1.1,2.8,91,0.00,CLR,,0.00,WeatherDisplay:10.37,2013-02-05 09:32:00,
2013-02-05 03:33:00,6.9,4.6,29.83,WSW,243,3.7,4.6,90,0.00,CLR,,0.00,WeatherDisplay:10.37,2013-02-05 09:33:00,
2013-02-05 03:35:00,7.1,4.8,29.83,West,260,3.6,4.6,90,0.00,CLR,,0.00,WeatherDisplay:10.37,2013-02-05 09:35:00,
2013-02-05 03:37:00,7.2,4.9,29.83,SW,222,4.7,6.3,90,0.00,CLR,,0.00,WeatherDisplay:10.37,2013-02-05 09:37:00,
2013-02-05 03:38:00,7.4,5.1,29.83,SSW,210,5.2,6.9,90,0.00,CLR,,0.00,WeatherDisplay:10.37,2013-02-05 09:38:00,
2013-02-05 03:41:00,7.4,5.1,29.82,SSW,203,5.6,7.9,90,0.00,CLR,,0.00,WeatherDisplay:10.37,2013-02-05 09:41:00,
2013-02-05 03:43:00,7.8,5.5,29.82,WSW,244,4.1,8.1,90,0.00,CLR,,0.00,WeatherDisplay:10.37,2013-02-05 09:43:00,
2013-02-05 03:46:00,7.9,5.6,29.82,SW,219,4.5,6.9,90,0.00,CLR,,0.00,WeatherDisplay:10.37,2013-02-05 09:46:00,
2013-02-05 03:48:00,8.0,5.7,29.82,SW,227,6.7,9.2,90,0.00,CLR,,0.00,WeatherDisplay:10.37,2013-02-05 09:48:00,
2013-02-05 03:51:00,8.3,6.0,29.82,SW,223,5.1,9.2,90,0.00,CLR,,0.00,WeatherDisplay:10.37,2013-02-05 09:51:00,
2013-02-05 03:53:00,8.4,6.1,29.82,SW,217,4.6,5.9,90,0.00,CLR,,0.00,WeatherDisplay:10.37,2013-02-05 09:53:00,
2013-02-05 03:54:00,8.5,6.2,29.82,SW,224,5.8,8.1,90,0.00,CLR,,0.00,WeatherDisplay:10.37,2013-02-05 09:54:00,
2013-02-05 03:56:00,8.7,6.4,29.82,WSW,246,6.6,8.1,90,0.00,CLR,,0.00,WeatherDisplay:10.37,2013-02-05 09:56:00,
2013-02-05 03:58:00,8.8,6.5,29.81,SW,227,4.7,6.9,90,0.00,CLR,,0.00,WeatherDisplay:10.37,2013-02-05 09:58:00,
2013-02-05 03:59:00,8.7,6.4,29.81,SW,234,5.5,8.1,90,0.00,CLR,,0.00,WeatherDisplay:10.37,2013-02-05 09:59:00,
2013-02-05 04:01:00,8.9,6.6,29.82,SW,226,5.0,6.3,90,0.00,CLR,,0.00,WeatherDisplay:10.37,2013-02-05 10:01:00,
2013-02-05 04:04:00,9.0,6.7,29.82,SW,227,7.1,9.2,90,0.00,CLR,,0.00,WeatherDisplay:10.37,2013-02-05 10:04:00,
2013-02-05 04:06:00,9.1,6.5,29.82,WSW,248,5.7,9.2,89,0.00,CLR,,0.00,WeatherDisplay:10.37,2013-02-05 10:06:00,
2013-02-05 04:09:00,9.2,6.6,29.82,SW,229,4.8,6.9,89,0.00,CLR,,0.00,WeatherDisplay:10.37,2013-02-05 10:09:00,
2013-02-05 04:10:00,9.1,6.5,29.82,WSW,240,4.3,6.9,89,0.00,CLR,,0.00,WeatherDisplay:10.37,2013-02-05 10:10:00,
2013-02-05 04:11:00,9.1,6.5,29.82,SW,220,6.5,7.5,89,0.00,CLR,,0.00,WeatherDisplay:10.37,2013-02-05 10:11:00,
2013-02-05 04:14:00,9.5,6.9,29.81,SW,219,5.4,6.9,89,0.00,CLR,,0.00,WeatherDisplay:10.37,2013-02-05 10:14:00,
2013-02-05 04:15:00,9.4,6.8,29.81,WSW,239,5.4,6.9,89,0.00,CLR,,0.00,WeatherDisplay:10.37,2013-02-05 10:15:00,
2013-02-05 04:16:00,9.4,6.8,29.81,SSW,203,4.6,5.8,89,0.00,CLR,,0.00,WeatherDisplay:10.37,2013-02-05 10:16:00,
2013-02-05 04:19:00,9.5,6.9,29.81,SW,226,5.8,8.1,89,0.00,CLR,,0.00,WeatherDisplay:10.37,2013-02-05 10:19:00,
2013-02-05 04:20:00,9.6,7.0,29.81,SW,217,6.1,8.6,89,0.00,CLR,,0.00,WeatherDisplay:10.37,2013-02-05 10:20:00,
2013-02-05 04:22:00,9.7,7.1,29.81,SW,222,5.8,6.9,89,0.00,CLR,,0.00,WeatherDisplay:10.37,2013-02-05 10:22:00,
2013-02-05 04:24:00,9.7,7.1,29.81,SSW,213,4.8,9.2,89,0.00,CLR,,0.00,WeatherDisplay:10.37,2013-02-05 10:24:00,
2013-02-05 04:25:00,9.8,7.2,29.81,SW,220,5.7,8.1,89,0.00,CLR,,0.00,WeatherDisplay:10.37,2013-02-05 10:25:00,
2013-02-05 04:27:00,9.9,7.3,29.81,SW,230,5.6,8.1,89,0.00,CLR,,0.00,WeatherDisplay:10.37,2013-02-05 10:27:00,
2013-02-05 04:30:00,10.1,7.5,29.81,SW,220,6.9,9.2,89,0.00,CLR,,0.00,WeatherDisplay:10.37,2013-02-05 10:30:00,
2013-02-05 04:32:00,10.0,7.4,29.81,SW,220,5.6,6.9,89,0.00,CLR,,0.00,WeatherDisplay:10.37,2013-02-05 10:32:00,
2013-02-05 04:35:00,10.1,7.5,29.81,SW,227,4.4,6.9,89,0.00,CLR,,0.00,WeatherDisplay:10.37,2013-02-05 10:35:00,
2013-02-05 04:37:00,10.2,7.6,29.81,SW,223,6.3,10.4,89,0.00,CLR,,0.00,WeatherDisplay:10.37,2013-02-05 10:37:00,
2013-02-05 04:40:00,10.0,7.4,29.80,SW,236,5.3,7.1,89,0.00,CLR,,0.00,WeatherDisplay:10.37,2013-02-05 10:40:00,
2013-02-05 04:41:00,10.0,7.4,29.80,SW,223,5.2,6.9,89,0.00,CLR,,0.00,WeatherDisplay:10.37,2013-02-05 10:41:00,
2013-02-05 04:42:00,10.2,7.9,29.80,South,175,4.1,5.8,90,0.00,CLR,,0.00,WeatherDisplay:10.37,2013-02-05 10:42:00,
2013-02-05 04:45:00,10.2,7.9,29.80,SW,227,4.4,8.1,90,0.00,CLR,,0.00,WeatherDisplay:10.37,2013-02-05 10:45:00,
2013-02-05 04:46:00,10.3,8.0,29.80,SSW,209,5.0,8.1,90,0.00,CLR,,0.00,WeatherDisplay:10.37,2013-02-05 10:46:00,
2013-02-05 04:47:00,10.4,8.0,29.80,WSW,243,5.6,6.9,90,0.00,CLR,,0.00,WeatherDisplay:10.37,2013-02-05 10:47:00,
2013-02-05 04:50:00,10.3,8.0,29.80,SW,226,4.8,8.1,90,0.00,CLR,,0.00,WeatherDisplay:10.37,2013-02-05 10:50:00,
2013-02-05 04:51:00,10.4,8.0,29.80,SSW,202,4.9,6.9,90,0.00,CLR,,0.00,WeatherDisplay:10.37,2013-02-05 10:51:00,
2013-02-05 04:52:00,10.3,8.0,29.80,SSW,203,5.4,9.2,90,0.00,CLR,,0.00,WeatherDisplay:10.37,2013-02-05 10:52:00,
2013-02-05 04:55:00,10.5,8.1,29.79,South,185,5.3,9.2,90,0.00,CLR,,0.00,WeatherDisplay:10.37,2013-02-05 10:55:00,
2013-02-05 04:56:00,10.4,8.0,29.79,SW,222,5.4,8.1,90,0.00,CLR,,0.00,WeatherDisplay:10.37,2013-02-05 10:56:00,
2013-02-05 04:58:00,10.4,8.0,29.79,WSW,258,5.9,8.1,90,0.00,CLR,,0.00,WeatherDisplay:10.37,2013-02-05 10:58:00,
2013-02-05 05:00:00,10.6,8.2,29.79,WSW,253,5.1,6.9,90,0.00,CLR,,0.00,WeatherDisplay:10.37,2013-02-05 11:00:00,
2013-02-05 05:01:00,10.6,8.2,29.79,SW,223,5.5,6.9,90,0.00,CLR,,0.00,WeatherDisplay:10.37,2013-02-05 11:01:00,
2013-02-05 05:03:00,10.7,8.3,29.79,SW,227,5.3,6.9,90,0.00,CLR,,0.00,WeatherDisplay:10.37,2013-02-05 11:03:00,
2013-02-05 05:05:00,10.7,8.3,29.79,SW,222,4.5,6.2,90,0.00,CLR,,0.00,WeatherDisplay:10.37,2013-02-05 11:05:00,
2013-02-05 05:06:00,10.8,8.4,29.79,SW,224,5.2,5.8,90,0.00,CLR,,0.00,WeatherDisplay:10.37,2013-02-05 11:06:00,
2013-02-05 05:08:00,10.8,8.4,29.79,SW,215,6.9,8.1,90,0.00,CLR,,0.00,WeatherDisplay:10.37,2013-02-05 11:08:00,
2013-02-05 05:10:00,10.8,8.4,29.79,SW,220,6.9,11.5,90,0.00,CLR,,0.00,WeatherDisplay:10.37,2013-02-05 11:10:00,
2013-02-05 05:11:00,10.9,8.5,29.79,SW,217,7.3,10.4,90,0.00,CLR,,0.00,WeatherDisplay:10.37,2013-02-05 11:11:00,
2013-02-05 05:12:00,10.7,8.3,29.78,WSW,241,7.1,10.4,90,0.00,CLR,,0.00,WeatherDisplay:10.37,2013-02-05 11:12:00,
2013-02-05 05:13:00,10.9,8.8,29.79,WSW,239,8.1,10.4,91,0.00,CLR,,0.00,WeatherDisplay:10.37,2013-02-05 11:13:00,
2013-02-05 05:15:00,10.8,8.7,29.78,SSW,199,8.0,9.2,91,0.00,CLR,,0.00,WeatherDisplay:10.37,2013-02-05 11:15:00,
2013-02-05 05:16:00,10.8,8.7,29.78,SW,215,6.8,11.5,91,0.00,CLR,,0.00,WeatherDisplay:10.37,2013-02-05 11:16:00,
2013-02-05 05:17:00,10.8,8.7,29.78,SW,215,8.0,10.4,91,0.00,CLR,,0.00,WeatherDisplay:10.37,2013-02-05 11:17:00,
2013-02-05 05:18:00,10.8,8.7,29.78,SSW,212,8.2,11.5,91,0.00,CLR,,0.00,WeatherDisplay:10.37,2013-02-05 11:18:00,
2013-02-05 05:21:00,10.8,8.7,29.77,WSW,250,7.8,11.5,91,0.00,CLR,,0.00,WeatherDisplay:10.37,2013-02-05 11:21:00,
2013-02-05 05:22:00,10.9,9.0,29.78,SW,226,6.3,9.2,92,0.00,CLR,,0.00,WeatherDisplay:10.37,2013-02-05 11:22:00,
2013-02-05 05:23:00,10.9,9.0,29.77,SW,224,7.3,11.5,92,0.00,CLR,,0.00,WeatherDisplay:10.37,2013-02-05 11:23:00,
2013-02-05 05:26:00,11.0,9.1,29.77,SSW,213,7.8,12.7,92,0.00,CLR,,0.00,WeatherDisplay:10.37,2013-02-05 11:26:00,
2013-02-05 05:27:00,11.0,9.1,29.77,SW,216,6.6,11.5,92,0.00,CLR,,0.00,WeatherDisplay:10.37,2013-02-05 11:27:00,
2013-02-05 05:28:00,10.9,9.0,29.77,SW,230,6.7,9.2,92,0.00,CLR,,0.00,WeatherDisplay:10.37,2013-02-05 11:28:00,
2013-02-05 05:31:00,11.1,9.2,29.77,WSW,237,7.6,10.4,92,0.00,CLR,,0.00,WeatherDisplay:10.37,2013-02-05 11:31:00,
2013-02-05 05:32:00,10.9,9.0,29.77,SSW,203,7.0,10.4,92,0.00,CLR,,0.00,WeatherDisplay:10.37,2013-02-05 11:32:00,
2013-02-05 05:34:00,11.1,9.2,29.77,SW,224,7.8,11.0,92,0.00,CLR,,0.00,WeatherDisplay:10.37,2013-02-05 11:34:00,
2013-02-05 05:36:00,11.2,9.3,29.77,SSW,213,7.0,11.5,92,0.00,CLR,,0.00,WeatherDisplay:10.37,2013-02-05 11:36:00,
2013-02-05 05:37:00,11.0,9.1,29.77,SW,226,8.2,9.2,92,0.00,CLR,,0.00,WeatherDisplay:10.37,2013-02-05 11:37:00,
2013-02-05 05:39:00,11.2,9.3,29.76,SSW,210,8.3,10.4,92,0.00,CLR,,0.00,WeatherDisplay:10.37,2013-02-05 11:39:00,
2013-02-05 05:42:00,11.3,9.4,29.75,SW,223,8.2,11.5,92,0.00,CLR,,0.00,WeatherDisplay:10.37,2013-02-05 11:42:00,
2013-02-05 05:44:00,11.2,9.3,29.75,SW,216,9.2,15.0,92,0.00,CLR,,0.00,WeatherDisplay:10.37,2013-02-05 11:44:00,
2013-02-05 05:47:00,11.3,9.7,29.75,SW,234,9.8,16.1,93,0.00,CLR,,0.00,WeatherDisplay:10.37,2013-02-05 11:47:00,
2013-02-05 05:50:00,11.3,9.7,29.75,SSW,203,7.9,11.5,93,0.00,CLR,,0.00,WeatherDisplay:10.37,2013-02-05 11:50:00,
2013-02-05 05:52:00,11.2,9.6,29.75,SSW,210,9.3,12.7,93,0.00,CLR,,0.00,WeatherDisplay:10.37,2013-02-05 11:52:00,
2013-02-05 05:55:00,11.2,9.6,29.75,SSW,213,9.1,15.0,93,0.00,CLR,,0.00,WeatherDisplay:10.37,2013-02-05 11:55:00,
2013-02-05 05:57:00,11.5,9.9,29.75,SW,216,9.3,12.7,93,0.00,CLR,,0.00,WeatherDisplay:10.37,2013-02-05 11:57:00,
2013-02-05 06:00:00,11.3,9.7,29.74,SW,215,8.7,15.0,93,0.00,CLR,,0.00,WeatherDisplay:10.37,2013-02-05 12:00:00,
2013-02-05 06:02:00,11.3,9.7,29.75,West,280,5.7,13.8,93,0.00,CLR,,0.00,WeatherDisplay:10.37,2013-02-05 12:02:00,
2013-02-05 06:03:00,11.3,9.7,29.76,WSW,240,5.8,10.4,93,0.00,CLR,,0.00,WeatherDisplay:10.37,2013-02-05 12:03:00,
2013-02-05 06:05:00,11.3,9.7,29.77,West,271,5.3,6.9,93,0.00,CLR,,0.00,WeatherDisplay:10.37,2013-02-05 12:05:00,
2013-02-05 06:07:00,11.3,9.7,29.77,SSW,203,4.7,7.2,93,0.00,CLR,,0.00,WeatherDisplay:10.37,2013-02-05 12:07:00,
2013-02-05 06:08:00,11.3,9.7,29.76,SW,217,5.4,9.1,93,0.00,CLR,,0.00,WeatherDisplay:10.37,2013-02-05 12:08:00,
2013-02-05 06:10:00,11.3,9.7,29.76,SSW,208,5.5,8.1,93,0.00,CLR,,0.00,WeatherDisplay:10.37,2013-02-05 12:10:00,
2013-02-05 06:12:00,11.3,9.7,29.76,SSW,198,5.7,6.9,93,0.00,CLR,,0.00,WeatherDisplay:10.37,2013-02-05 12:12:00,
2013-02-05 06:13:00,11.3,9.7,29.76,SSW,209,5.2,9.2,93,0.00,CLR,,0.00,WeatherDisplay:10.37,2013-02-05 12:13:00,
2013-02-05 06:15:00,11.4,9.8,29.76,SW,230,1.9,5.8,93,0.00,CLR,,0.00,WeatherDisplay:10.37,2013-02-05 12:15:00,
2013-02-05 06:17:00,11.4,9.8,29.76,SW,230,4.7,6.9,93,0.00,CLR,,0.00,WeatherDisplay:10.37,2013-02-05 12:17:00,
2013-02-05 06:18:00,11.4,9.8,29.76,SW,229,4.7,6.9,93,0.00,CLR,,0.00,WeatherDisplay:10.37,2013-02-05 12:18:00,
2013-02-05 06:20:00,11.5,9.9,29.76,SW,226,4.2,6.9,93,0.00,CLR,,0.00,WeatherDisplay:10.37,2013-02-05 12:20:00,
2013-02-05 06:22:00,11.6,10.0,29.77,SW,233,4.1,5.8,93,0.00,CLR,,0.00,WeatherDisplay:10.37,2013-02-05 12:22:00,
2013-02-05 06:23:00,11.6,10.0,29.77,SSW,202,4.2,4.6,93,0.00,CLR,,0.00,WeatherDisplay:10.37,2013-02-05 12:23:00,
2013-02-05 06:24:00,11.4,9.8,29.77,SW,230,4.2,7.3,93,0.00,CLR,,0.00,WeatherDisplay:10.37,2013-02-05 12:24:00,
2013-02-05 06:25:00,11.5,9.9,29.77,WSW,243,4.4,8.1,93,0.00,CLR,,0.00,WeatherDisplay:10.37,2013-02-05 12:25:00,
2013-02-05 06:28:00,11.6,10.0,29.78,WSW,244,4.3,6.9,93,0.00,CLR,,0.00,WeatherDisplay:10.37,2013-02-05 12:28:00,
2013-02-05 06:29:00,11.7,10.1,29.78,SW,229,3.0,6.0,93,0.00,CLR,,0.00,WeatherDisplay:10.37,2013-02-05 12:29:00,
2013-02-05 06:30:00,11.8,10.2,29.77,SW,220,7.4,9.2,93,0.00,CLR,,0.00,WeatherDisplay:10.37,2013-02-05 12:30:00,
2013-02-05 06:33:00,11.8,10.2,29.77,SW,224,3.9,6.6,93,0.00,CLR,,0.00,WeatherDisplay:10.37,2013-02-05 12:33:00,
2013-02-05 06:34:00,11.8,10.2,29.77,SW,222,5.9,9.2,93,0.00,CLR,,0.00,WeatherDisplay:10.37,2013-02-05 12:34:00,
2013-02-05 06:35:00,11.9,10.3,29.77,WSW,240,6.1,9.2,93,0.00,CLR,,0.00,WeatherDisplay:10.37,2013-02-05 12:35:00,
2013-02-05 06:38:00,12.1,10.5,29.77,WSW,247,7.4,10.4,93,0.00,CLR,,0.00,WeatherDisplay:10.37,2013-02-05 12:38:00,
2013-02-05 06:39:00,12.0,10.4,29.77,WSW,237,6.0,10.4,93,0.00,CLR,,0.00,WeatherDisplay:10.37,2013-02-05 12:39:00,
2013-02-05 06:41:00,12.2,10.6,29.77,SSW,210,8.7,12.7,93,0.00,CLR,,0.00,WeatherDisplay:10.37,2013-02-05 12:41:00,
2013-02-05 06:43:00,12.2,10.6,29.77,SW,229,8.6,10.4,93,0.00,CLR,,0.00,WeatherDisplay:10.37,2013-02-05 12:43:00,
2013-02-05 06:44:00,12.3,10.7,29.77,SW,233,7.1,10.4,93,0.00,CLR,,0.00,WeatherDisplay:10.37,2013-02-05 12:44:00,
2013-02-05 06:46:00,12.3,10.7,29.77,WSW,240,8.5,15.0,93,0.00,CLR,,0.00,WeatherDisplay:10.37,2013-02-05 12:46:00,
2013-02-05 06:48:00,12.3,10.7,29.77,SW,226,7.6,11.5,93,0.00,CLR,,0.00,WeatherDisplay:10.37,2013-02-05 12:48:00,
2013-02-05 06:49:00,12.4,10.8,29.77,SW,224,6.6,10.4,93,0.00,CLR,,0.00,WeatherDisplay:10.37,2013-02-05 12:49:00,
2013-02-05 06:51:00,12.5,10.9,29.76,SW,223,7.3,9.2,93,0.00,CLR,,0.00,WeatherDisplay:10.37,2013-02-05 12:51:00,
2013-02-05 06:53:00,12.6,11.0,29.76,SSW,213,7.2,10.8,93,0.00,CLR,,0.00,WeatherDisplay:10.37,2013-02-05 12:53:00,
2013-02-05 06:54:00,12.6,11.0,29.76,SW,227,7.2,11.5,93,0.00,CLR,,0.00,WeatherDisplay:10.37,2013-02-05 12:54:00,
2013-02-05 06:55:00,12.6,10.7,29.76,SW,227,7.1,10.6,92,0.00,CLR,,0.00,WeatherDisplay:10.37,2013-02-05 12:55:00,
2013-02-05 06:57:00,12.5,10.6,29.76,SW,216,6.8,10.4,92,0.00,CLR,,0.00,WeatherDisplay:10.37,2013-02-05 12:57:00,
2013-02-05 06:58:00,12.6,10.7,29.76,SW,224,9.1,10.4,92,0.00,CLR,,0.00,WeatherDisplay:10.37,2013-02-05 12:58:00,
2013-02-05 06:59:00,12.5,10.6,29.76,SW,227,8.4,12.7,92,0.00,CLR,,0.00,WeatherDisplay:10.37,2013-02-05 12:59:00,
2013-02-05 07:00:00,12.6,10.7,29.76,SW,217,9.5,12.7,92,0.00,CLR,,0.00,WeatherDisplay:10.37,2013-02-05 13:00:00,
2013-02-05 07:03:00,12.6,10.7,29.76,SSW,205,7.3,10.4,92,0.00,CLR,,0.00,WeatherDisplay:10.37,2013-02-05 13:03:00,
2013-02-05 07:04:00,12.7,10.8,29.76,SW,233,6.9,11.5,92,0.00,CLR,,0.00,WeatherDisplay:10.37,2013-02-05 13:04:00,
2013-02-05 07:05:00,12.6,10.7,29.76,SW,227,6.4,9.2,92,0.00,CLR,,0.00,WeatherDisplay:10.37,2013-02-05 13:05:00,
2013-02-05 07:08:00,12.7,10.8,29.76,WSW,246,7.3,11.5,92,0.00,CLR,,0.00,WeatherDisplay:10.37,2013-02-05 13:08:00,
2013-02-05 07:09:00,12.7,10.8,29.76,SW,232,9.2,13.8,92,0.00,CLR,,0.00,WeatherDisplay:10.37,2013-02-05 13:09:00,
2013-02-05 07:10:00,12.6,10.7,29.76,SSW,209,7.3,11.6,92,0.00,CLR,,0.00,WeatherDisplay:10.37,2013-02-05 13:10:00,
2013-02-05 07:13:00,12.7,10.8,29.75,SW,223,7.0,12.7,92,0.00,CLR,,0.00,WeatherDisplay:10.37,2013-02-05 13:13:00,
2013-02-05 07:14:00,12.6,10.7,29.75,SW,219,7.1,10.6,92,0.00,CLR,,0.00,WeatherDisplay:10.37,2013-02-05 13:14:00,
2013-02-05 07:16:00,12.8,10.9,29.75,WSW,241,5.6,9.2,92,0.00,CLR,,0.00,WeatherDisplay:10.37,2013-02-05 13:16:00,
2013-02-05 07:18:00,12.8,10.9,29.75,SW,226,7.0,11.5,92,0.00,CLR,,0.00,WeatherDisplay:10.37,2013-02-05 13:18:00,
2013-02-05 07:19:00,12.7,10.8,29.75,SW,216,7.7,11.5,92,0.00,CLR,,0.00,WeatherDisplay:10.37,2013-02-05 13:19:00,
2013-02-05 07:21:00,12.8,10.9,29.75,WSW,257,6.6,9.2,92,0.00,CLR,,0.00,WeatherDisplay:10.37,2013-02-05 13:21:00,
2013-02-05 07:23:00,12.9,11.0,29.75,WSW,237,6.2,10.4,92,0.00,CLR,,0.00,WeatherDisplay:10.37,2013-02-05 13:23:00,
2013-02-05 07:24:00,12.9,11.0,29.75,SSW,212,7.1,10.4,92,0.00,CLR,,0.00,WeatherDisplay:10.37,2013-02-05 13:24:00,
2013-02-05 07:25:00,12.9,11.0,29.75,WSW,244,7.1,10.4,92,0.00,CLR,,0.00,WeatherDisplay:10.37,2013-02-05 13:25:00,
2013-02-05 07:26:00,12.9,11.0,29.75,SW,224,7.4,9.2,92,0.00,CLR,,0.00,WeatherDisplay:10.37,2013-02-05 13:26:00,
2013-02-05 07:28:00,12.9,11.0,29.75,SW,216,7.5,10.4,92,0.00,CLR,,0.00,WeatherDisplay:10.37,2013-02-05 13:28:00,
2013-02-05 07:29:00,12.9,11.0,29.75,WSW,247,7.2,9.2,92,0.00,CLR,,0.00,WeatherDisplay:10.37,2013-02-05 13:29:00,
2013-02-05 07:30:00,12.9,11.0,29.75,WSW,251,7.7,10.4,92,0.00,CLR,,0.00,WeatherDisplay:10.37,2013-02-05 13:30:00,
2013-02-05 07:31:00,13.0,11.1,29.75,SSW,213,7.9,10.4,92,0.00,CLR,,0.00,WeatherDisplay:10.37,2013-02-05 13:31:00,
2013-02-05 07:33:00,13.1,11.2,29.75,SSW,208,6.7,9.2,92,0.00,CLR,,0.00,WeatherDisplay:10.37,2013-02-05 13:33:00,
2013-02-05 07:34:00,13.0,11.1,29.75,WSW,240,6.5,9.2,92,0.00,CLR,,0.00,WeatherDisplay:10.37,2013-02-05 13:34:00,
2013-02-05 07:36:00,13.0,11.1,29.75,SW,223,7.1,9.2,92,0.00,CLR,,0.00,WeatherDisplay:10.37,2013-02-05 13:36:00,
2013-02-05 07:39:00,13.1,11.2,29.75,WSW,237,7.2,10.4,92,0.00,CLR,,0.00,WeatherDisplay:10.37,2013-02-05 13:39:00,
2013-02-05 07:41:00,13.0,11.1,29.75,SW,220,8.7,12.7,92,0.00,CLR,,0.00,WeatherDisplay:10.37,2013-02-05 13:41:00,
2013-02-05 07:44:00,13.2,11.3,29.75,SW,222,6.8,10.7,92,0.00,CLR,,0.00,WeatherDisplay:10.37,2013-02-05 13:44:00,
2013-02-05 07:46:00,13.2,11.3,29.75,SW,227,7.9,10.4,92,0.00,CLR,,0.00,WeatherDisplay:10.37,2013-02-05 13:46:00,
2013-02-05 07:49:00,13.3,11.4,29.75,SW,233,5.8,11.5,92,0.00,CLR,,0.00,WeatherDisplay:10.37,2013-02-05 13:49:00,
2013-02-05 07:51:00,13.5,11.6,29.75,SW,222,9.0,12.1,92,0.00,CLR,,0.00,WeatherDisplay:10.37,2013-02-05 13:51:00,
2013-02-05 07:54:00,13.5,11.6,29.75,SW,227,9.8,13.8,92,0.00,CLR,,0.00,WeatherDisplay:10.37,2013-02-05 13:54:00,
2013-02-05 07:56:00,13.6,11.7,29.74,SSW,213,9.4,12.5,92,0.00,CLR,,0.00,WeatherDisplay:10.37,2013-02-05 13:56:00,
2013-02-05 07:59:00,13.8,11.7,29.75,SW,236,7.2,8.1,91,0.00,CLR,,0.00,WeatherDisplay:10.37,2013-02-05 13:59:00,
2013-02-05 08:00:00,13.8,11.7,29.75,SW,233,6.9,10.4,91,0.00,CLR,,0.00,WeatherDisplay:10.37,2013-02-05 14:00:00,
2013-02-05 08:01:00,13.7,11.6,29.74,SW,234,5.7,11.5,91,0.00,CLR,,0.00,WeatherDisplay:10.37,2013-02-05 14:01:00,
2013-02-05 08:02:00,13.9,11.8,29.75,SSW,210,5.2,8.1,91,0.00,CLR,,0.00,WeatherDisplay:10.37,2013-02-05 14:02:00,
2013-02-05 08:04:00,14.0,11.9,29.75,SW,227,6.6,10.6,91,0.00,CLR,,0.00,WeatherDisplay:10.37,2013-02-05 14:04:00,
2013-02-05 08:05:00,14.1,12.0,29.74,SW,224,7.1,11.5,91,0.00,CLR,,0.00,WeatherDisplay:10.37,2013-02-05 14:05:00,
2013-02-05 08:06:00,14.0,11.9,29.74,SW,217,4.1,8.1,91,0.00,CLR,,0.00,WeatherDisplay:10.37,2013-02-05 14:06:00,
2013-02-05 08:07:00,14.0,11.9,29.74,SW,219,3.9,5.8,91,0.00,CLR,,0.00,WeatherDisplay:10.37,2013-02-05 14:07:00,
2013-02-05 08:09:00,14.1,12.0,29.75,SW,230,7.4,10.4,91,0.00,CLR,,0.00,WeatherDisplay:10.37,2013-02-05 14:09:00,
2013-02-05 08:10:00,14.2,12.1,29.75,SW,217,6.2,10.4,91,0.00,CLR,,0.00,WeatherDisplay:10.37,2013-02-05 14:10:00,
2013-02-05 08:12:00,14.3,12.2,29.75,WSW,244,4.0,6.9,91,0.00,CLR,,0.00,WeatherDisplay:10.37,2013-02-05 14:12:00,
2013-02-05 08:14:00,14.3,12.2,29.75,SW,224,7.3,9.2,91,0.00,CLR,,0.00,WeatherDisplay:10.37,2013-02-05 14:14:00,
2013-02-05 08:15:00,14.4,12.3,29.75,SW,224,5.8,9.2,91,0.00,CLR,,0.00,WeatherDisplay:10.37,2013-02-05 14:15:00,
2013-02-05 08:17:00,14.5,12.4,29.75,SW,217,7.3,10.5,91,0.00,CLR,,0.00,WeatherDisplay:10.37,2013-02-05 14:17:00,
2013-02-05 08:19:00,14.7,12.6,29.75,SSW,213,6.0,12.7,91,0.00,CLR,,0.00,WeatherDisplay:10.37,2013-02-05 14:19:00,
2013-02-05 08:20:00,14.7,12.6,29.75,WNW,288,5.2,8.1,91,0.00,CLR,,0.00,WeatherDisplay:10.37,2013-02-05 14:20:00,
2013-02-05 08:22:00,14.8,12.6,29.75,SW,234,7.0,9.2,91,0.00,CLR,,0.00,WeatherDisplay:10.37,2013-02-05 14:22:00,
2013-02-05 08:23:00,14.8,12.6,29.75,SW,229,4.3,6.9,91,0.00,CLR,,0.00,WeatherDisplay:10.37,2013-02-05 14:23:00,
2013-02-05 08:24:00,14.9,12.7,29.75,WSW,246,3.0,5.0,91,0.00,CLR,,0.00,WeatherDisplay:10.37,2013-02-05 14:24:00,
2013-02-05 08:26:00,15.0,12.8,29.75,SW,219,5.0,8.5,91,0.00,CLR,,0.00,WeatherDisplay:10.37,2013-02-05 14:26:00,
2013-02-05 08:27:00,15.0,12.8,29.75,WSW,237,5.8,8.1,91,0.00,CLR,,0.00,WeatherDisplay:10.37,2013-02-05 14:27:00,
2013-02-05 08:28:00,15.0,12.8,29.75,WSW,239,7.3,9.2,91,0.00,CLR,,0.00,WeatherDisplay:10.37,2013-02-05 14:28:00,
2013-02-05 08:29:00,15.2,13.0,29.75,West,263,5.3,9.2,91,0.00,CLR,,0.00,WeatherDisplay:10.37,2013-02-05 14:29:00,
2013-02-05 08:31:00,15.3,13.1,29.75,WSW,254,5.3,7.7,91,0.00,CLR,,0.00,WeatherDisplay:10.37,2013-02-05 14:31:00,
2013-02-05 08:32:00,15.3,13.1,29.75,SW,230,6.1,8.1,91,0.00,CLR,,0.00,WeatherDisplay:10.37,2013-02-05 14:32:00,
2013-02-05 08:33:00,15.4,13.2,29.75,SW,216,5.9,8.1,91,0.00,CLR,,0.00,WeatherDisplay:10.37,2013-02-05 14:33:00,
2013-02-05 08:34:00,15.4,13.2,29.75,West,267,3.8,6.9,91,0.00,CLR,,0.00,WeatherDisplay:10.37,2013-02-05 14:34:00,
2013-02-05 08:36:00,15.6,13.4,29.75,SW,220,6.7,9.4,91,0.00,CLR,,0.00,WeatherDisplay:10.37,2013-02-05 14:36:00,
2013-02-05 08:37:00,15.7,13.5,29.75,SW,230,8.1,10.4,91,0.00,CLR,,0.00,WeatherDisplay:10.37,2013-02-05 14:37:00,
2013-02-05 08:38:00,15.6,13.4,29.75,West,271,7.7,11.5,91,0.00,CLR,,0.00,WeatherDisplay:10.37,2013-02-05 14:38:00,
2013-02-05 08:40:00,15.9,13.7,29.75,SW,227,7.3,13.1,91,0.00,CLR,,0.00,WeatherDisplay:10.37,2013-02-05 14:40:00,
2013-02-05 08:41:00,15.9,13.7,29.75,WSW,250,5.8,9.2,91,0.00,CLR,,0.00,WeatherDisplay:10.37,2013-02-05 14:41:00,
2013-02-05 08:43:00,16.0,13.8,29.75,West,268,6.0,9.2,91,0.00,CLR,,0.00,WeatherDisplay:10.37,2013-02-05 14:43:00,
2013-02-05 08:45:00,16.2,14.0,29.75,WSW,256,6.7,9.2,91,0.00,CLR,,0.00,WeatherDisplay:10.37,2013-02-05 14:45:00,
2013-02-05 08:47:00,16.2,13.8,29.75,SW,227,6.0,11.5,90,0.00,CLR,,0.00,WeatherDisplay:10.37,2013-02-05 14:47:00,
2013-02-05 08:48:00,16.3,13.9,29.75,South,181,5.1,6.9,90,0.00,CLR,,0.00,WeatherDisplay:10.37,2013-02-05 14:48:00,
2013-02-05 08:50:00,16.5,14.1,29.75,SW,220,4.8,9.2,90,0.00,CLR,,0.00,WeatherDisplay:10.37,2013-02-05 14:50:00,
2013-02-05 08:52:00,16.5,14.1,29.75,SW,234,5.9,9.4,90,0.00,CLR,,0.00,WeatherDisplay:10.37,2013-02-05 14:52:00,
2013-02-05 08:53:00,16.5,14.1,29.75,SW,227,7.1,10.4,90,0.00,CLR,,0.00,WeatherDisplay:10.37,2013-02-05 14:53:00,
2013-02-05 08:55:00,16.5,14.1,29.75,SSW,210,6.8,9.2,90,0.00,CLR,,0.00,WeatherDisplay:10.37,2013-02-05 14:55:00,
2013-02-05 08:57:00,16.7,14.3,29.75,West,274,5.4,9.2,90,0.00,CLR,,0.00,WeatherDisplay:10.37,2013-02-05 14:57:00,
2013-02-05 08:58:00,16.7,14.3,29.75,WSW,247,6.0,11.5,90,0.00,CLR,,0.00,WeatherDisplay:10.37,2013-02-05 14:58:00,
2013-02-05 08:59:00,16.8,14.4,29.75,SW,224,5.7,8.2,90,0.00,CLR,,0.00,WeatherDisplay:10.37,2013-02-05 14:59:00,
2013-02-05 09:00:00,16.8,14.4,29.75,WSW,241,6.5,10.4,90,0.00,CLR,,0.00,WeatherDisplay:10.37,2013-02-05 15:00:00,
2013-02-05 09:02:00,16.7,14.3,29.75,SW,233,8.1,11.5,90,0.00,CLR,,0.00,WeatherDisplay:10.37,2013-02-05 15:02:00,
2013-02-05 09:04:00,16.9,14.5,29.75,West,275,7.3,11.5,90,0.00,CLR,,0.00,WeatherDisplay:10.37,2013-02-05 15:04:00,
2013-02-05 09:06:00,17.0,14.6,29.75,SW,230,6.8,11.5,90,0.00,CLR,,0.00,WeatherDisplay:10.37,2013-02-05 15:06:00,
2013-02-05 09:07:00,17.0,14.6,29.75,SW,227,5.8,8.1,90,0.00,CLR,,0.00,WeatherDisplay:10.37,2013-02-05 15:07:00,
2013-02-05 09:09:00,17.2,14.8,29.74,WSW,258,7.9,11.5,90,0.00,CLR,,0.00,WeatherDisplay:10.37,2013-02-05 15:09:00,
2013-02-05 09:11:00,17.3,14.9,29.74,West,268,5.9,8.1,90,0.00,CLR,,0.00,WeatherDisplay:10.37,2013-02-05 15:11:00,
2013-02-05 09:12:00,17.4,15.0,29.75,West,280,6.3,11.5,90,0.00,CLR,,0.00,WeatherDisplay:10.37,2013-02-05 15:12:00,
2013-02-05 09:14:00,17.5,15.3,29.74,SW,229,6.7,10.4,91,0.00,CLR,,0.00,WeatherDisplay:10.37,2013-02-05 15:14:00,
2013-02-05 09:16:00,17.6,15.4,29.75,WSW,251,4.8,8.1,91,0.00,CLR,,0.00,WeatherDisplay:10.37,2013-02-05 15:16:00,
2013-02-05 09:18:00,17.6,15.7,29.75,West,264,6.3,9.2,92,0.00,CLR,,0.00,WeatherDisplay:10.37,2013-02-05 15:18:00,
2013-02-05 09:19:00,17.6,15.7,29.75,SW,224,7.5,10.4,92,0.00,CLR,,0.00,WeatherDisplay:10.37,2013-02-05 15:19:00,
2013-02-05 09:20:00,17.6,15.7,29.74,SW,222,6.4,10.4,92,0.00,CLR,,0.00,WeatherDisplay:10.37,2013-02-05 15:20:00,
2013-02-05 09:21:00,17.6,15.7,29.74,SW,224,6.2,11.5,92,0.00,CLR,,0.00,WeatherDisplay:10.37,2013-02-05 15:21:00,
2013-02-05 09:23:00,17.7,16.0,29.74,SW,233,8.0,10.4,93,0.00,CLR,,0.00,WeatherDisplay:10.37,2013-02-05 15:23:00,
2013-02-05 09:24:00,17.6,15.9,29.74,West,270,5.4,8.1,93,0.00,CLR,,0.00,WeatherDisplay:10.37,2013-02-05 15:24:00,
2013-02-05 09:25:00,17.7,16.0,29.75,SW,226,5.7,10.5,93,0.00,CLR,,0.00,WeatherDisplay:10.37,2013-02-05 15:25:00,
2013-02-05 09:27:00,17.6,15.9,29.75,WSW,239,5.6,9.2,93,0.00,CLR,,0.00,WeatherDisplay:10.37,2013-02-05 15:27:00,
2013-02-05 09:28:00,17.7,16.0,29.74,SW,232,6.0,9.2,93,0.00,CLR,,0.00,WeatherDisplay:10.37,2013-02-05 15:28:00,
2013-02-05 09:29:00,17.8,16.1,29.74,WSW,244,7.4,12.7,93,0.00,CLR,,0.00,WeatherDisplay:10.37,2013-02-05 15:29:00,
2013-02-05 09:30:00,17.8,16.1,29.74,SW,215,6.9,11.5,93,0.00,CLR,,0.00,WeatherDisplay:10.37,2013-02-05 15:30:00,
2013-02-05 09:32:00,17.8,16.1,29.74,West,267,6.8,9.2,93,0.00,CLR,,0.00,WeatherDisplay:10.37,2013-02-05 15:32:00,
2013-02-05 09:33:00,17.8,16.4,29.74,SW,236,6.7,9.2,94,0.00,CLR,,0.00,WeatherDisplay:10.37,2013-02-05 15:33:00,
2013-02-05 09:34:00,17.8,16.4,29.74,WSW,244,5.6,11.5,94,0.00,CLR,,0.00,WeatherDisplay:10.37,2013-02-05 15:34:00,
2013-02-05 09:35:00,17.8,16.4,29.74,WSW,243,6.3,8.6,94,0.00,CLR,,0.00,WeatherDisplay:10.37,2013-02-05 15:35:00,
2013-02-05 09:37:00,17.8,16.4,29.74,WNW,285,5.5,8.1,94,0.00,CLR,,0.00,WeatherDisplay:10.37,2013-02-05 15:37:00,
2013-02-05 09:38:00,17.9,16.5,29.74,WSW,250,4.6,8.1,94,0.00,CLR,,0.00,WeatherDisplay:10.37,2013-02-05 15:38:00,
2013-02-05 09:40:00,17.7,16.3,29.74,SW,234,3.8,6.9,94,0.00,CLR,,0.00,WeatherDisplay:10.37,2013-02-05 15:40:00,
2013-02-05 09:42:00,17.8,16.6,29.74,SW,226,6.3,10.4,95,0.00,CLR,,0.00,WeatherDisplay:10.37,2013-02-05 15:42:00,
2013-02-05 09:43:00,17.9,16.7,29.74,WSW,246,6.9,8.2,95,0.00,CLR,,0.00,WeatherDisplay:10.37,2013-02-05 15:43:00,
2013-02-05 09:45:00,17.8,16.6,29.74,WSW,240,6.1,11.5,95,0.00,CLR,,0.00,WeatherDisplay:10.37,2013-02-05 15:45:00,
2013-02-05 09:48:00,17.9,16.7,29.73,WSW,257,6.8,11.5,95,0.00,CLR,,0.00,WeatherDisplay:10.37,2013-02-05 15:48:00,
2013-02-05 09:50:00,18.0,16.8,29.73,SW,227,9.1,13.2,95,0.00,CLR,,0.00,WeatherDisplay:10.37,2013-02-05 15:50:00,
2013-02-05 09:51:00,18.1,16.9,29.73,SW,229,9.8,13.8,95,0.00,CLR,,0.00,WeatherDisplay:10.37,2013-02-05 15:51:00,
2013-02-05 09:53:00,18.1,16.9,29.73,SW,230,10.3,13.8,95,0.00,CLR,,0.00,WeatherDisplay:10.37,2013-02-05 15:53:00,
2013-02-05 09:54:00,18.1,16.9,29.73,SSW,212,8.0,13.8,95,0.00,CLR,,0.00,WeatherDisplay:10.37,2013-02-05 15:54:00,
2013-02-05 09:55:00,18.1,16.9,29.73,SW,215,7.3,10.4,95,0.00,CLR,,0.00,WeatherDisplay:10.37,2013-02-05 15:55:00,
2013-02-05 09:56:00,18.1,16.9,29.73,SW,224,9.9,16.1,95,0.00,CLR,,0.00,WeatherDisplay:10.37,2013-02-05 15:56:00,
2013-02-05 09:58:00,18.1,16.9,29.73,SW,232,9.2,13.8,95,0.00,CLR,,0.00,WeatherDisplay:10.37,2013-02-05 15:58:00,
2013-02-05 09:59:00,18.1,16.9,29.73,SW,234,8.6,13.8,95,0.00,CLR,,0.00,WeatherDisplay:10.37,2013-02-05 15:59:00,
2013-02-05 10:00:00,18.1,16.9,29.73,WSW,243,11.6,17.3,95,0.00,CLR,,0.00,WeatherDisplay:10.37,2013-02-05 16:00:00,
2013-02-05 10:01:00,18.0,16.8,29.73,WSW,240,6.7,17.3,95,0.00,CLR,,0.00,WeatherDisplay:10.37,2013-02-05 16:01:00,
2013-02-05 10:03:00,18.1,16.9,29.73,WSW,248,8.6,16.1,95,0.00,CLR,,0.00,WeatherDisplay:10.37,2013-02-05 16:03:00,
2013-02-05 10:04:00,18.1,16.9,29.73,West,267,8.1,13.8,95,0.00,CLR,,0.00,WeatherDisplay:10.37,2013-02-05 16:04:00,
2013-02-05 10:05:00,18.1,16.9,29.73,WSW,256,9.2,13.8,95,0.00,CLR,,0.00,WeatherDisplay:10.37,2013-02-05 16:05:00,
2013-02-05 10:06:00,18.1,16.9,29.73,West,265,7.4,12.7,95,0.00,CLR,,0.00,WeatherDisplay:10.37,2013-02-05 16:06:00,
2013-02-05 10:08:00,17.9,16.7,29.73,West,261,7.9,13.8,95,0.00,CLR,,0.00,WeatherDisplay:10.37,2013-02-05 16:08:00,
2013-02-05 10:09:00,18.0,16.8,29.73,WSW,243,8.4,13.8,95,0.00,CLR,,0.00,WeatherDisplay:10.37,2013-02-05 16:09:00,
2013-02-05 10:10:00,18.0,16.8,29.73,WSW,244,8.6,12.7,95,0.00,CLR,,0.00,WeatherDisplay:10.37,2013-02-05 16:10:00,
2013-02-05 10:12:00,17.9,16.7,29.73,WSW,248,7.3,9.2,95,0.00,CLR,,0.00,WeatherDisplay:10.37,2013-02-05 16:12:00,
2013-02-05 10:14:00,17.9,17.0,29.73,West,267,8.7,12.7,96,0.00,CLR,,0.00,WeatherDisplay:10.37,2013-02-05 16:14:00,
2013-02-05 10:15:00,17.9,17.0,29.73,SW,224,7.6,12.7,96,0.00,CLR,,0.00,WeatherDisplay:10.37,2013-02-05 16:15:00,
2013-02-05 10:17:00,17.9,17.0,29.73,West,274,5.8,8.1,96,0.00,CLR,,0.00,WeatherDisplay:10.37,2013-02-05 16:17:00,
2013-02-05 10:19:00,18.0,17.1,29.73,WSW,241,8.1,10.4,96,0.00,CLR,,0.00,WeatherDisplay:10.37,2013-02-05 16:19:00,
2013-02-05 10:20:00,18.0,17.1,29.73,WSW,239,8.0,11.5,96,0.00,CLR,,0.00,WeatherDisplay:10.37,2013-02-05 16:20:00,
2013-02-05 10:22:00,18.0,17.1,29.73,SW,227,6.8,9.5,96,0.00,CLR,,0.00,WeatherDisplay:10.37,2013-02-05 16:22:00,
2013-02-05 10:24:00,18.1,17.2,29.74,WSW,246,5.1,9.2,96,0.00,CLR,,0.00,WeatherDisplay:10.37,2013-02-05 16:24:00,
2013-02-05 10:25:00,18.1,17.2,29.74,SW,227,6.6,11.5,96,0.00,CLR,,0.00,WeatherDisplay:10.37,2013-02-05 16:25:00,
2013-02-05 10:27:00,18.2,17.3,29.74,WSW,256,7.7,13.8,96,0.00,CLR,,0.00,WeatherDisplay:10.37,2013-02-05 16:27:00,
2013-02-05 10:29:00,18.3,17.4,29.74,WSW,253,7.0,9.8,96,0.00,CLR,,0.00,WeatherDisplay:10.37,2013-02-05 16:29:00,
2013-02-05 10:30:00,18.4,17.5,29.74,SW,232,6.9,10.4,96,0.00,CLR,,0.00,WeatherDisplay:10.37,2013-02-05 16:30:00,
2013-02-05 10:32:00,18.5,17.6,29.74,SW,219,6.1,10.4,96,0.00,CLR,,0.00,WeatherDisplay:10.37,2013-02-05 16:32:00,
2013-02-05 10:34:00,18.5,17.6,29.74,WNW,291,6.2,10.4,96,0.00,CLR,,0.00,WeatherDisplay:10.37,2013-02-05 16:34:00,
2013-02-05 10:35:00,18.5,17.6,29.74,SW,236,6.8,11.2,96,0.00,CLR,,0.00,WeatherDisplay:10.37,2013-02-05 16:35:00,
2013-02-05 10:37:00,18.6,17.7,29.74,WSW,240,5.9,8.1,96,0.00,CLR,,0.00,WeatherDisplay:10.37,2013-02-05 16:37:00,
2013-02-05 10:39:00,18.7,17.7,29.74,WSW,251,5.2,5.8,96,0.00,CLR,,0.00,WeatherDisplay:10.37,2013-02-05 16:39:00,
2013-02-05 10:40:00,18.8,17.8,29.74,WSW,244,4.4,8.1,96,0.00,CLR,,0.00,WeatherDisplay:10.37,2013-02-05 16:40:00,
2013-02-05 10:42:00,18.7,17.7,29.75,West,274,4.6,6.9,96,0.00,CLR,,0.00,WeatherDisplay:10.37,2013-02-05 16:42:00,
2013-02-05 10:44:00,18.9,17.9,29.75,SW,217,3.4,5.8,96,0.00,CLR,,0.00,WeatherDisplay:10.37,2013-02-05 16:44:00,
2013-02-05 10:46:00,19.0,18.0,29.75,WSW,241,4.9,4.9,96,0.00,CLR,,0.00,WeatherDisplay:10.37,2013-02-05 16:46:00,
2013-02-05 10:48:00,19.1,18.1,29.75,SW,232,3.9,5.8,96,0.00,CLR,,0.00,WeatherDisplay:10.37,2013-02-05 16:48:00,
2013-02-05 10:50:00,19.3,18.3,29.75,West,261,4.5,8.4,96,0.00,CLR,,0.00,WeatherDisplay:10.37,2013-02-05 16:50:00,
2013-02-05 10:51:00,19.3,18.3,29.75,SW,234,4.0,8.1,96,0.00,CLR,,0.00,WeatherDisplay:10.37,2013-02-05 16:51:00,
2013-02-05 10:53:00,19.5,18.5,29.75,WSW,250,5.5,8.1,96,0.00,CLR,,0.00,WeatherDisplay:10.37,2013-02-05 16:53:00,
2013-02-05 10:55:00,19.7,18.7,29.75,West,271,3.6,9.2,96,0.00,CLR,,0.00,WeatherDisplay:10.37,2013-02-05 16:55:00,
2013-02-05 10:56:00,19.8,18.8,29.75,WNW,301,3.0,4.6,96,0.00,CLR,,0.00,WeatherDisplay:10.37,2013-02-05 16:56:00,
2013-02-05 10:58:00,20.0,19.0,29.75,WSW,253,4.8,8.1,96,0.00,CLR,,0.00,WeatherDisplay:10.37,2013-02-05 16:58:00,
2013-02-05 11:00:00,20.2,19.2,29.75,WSW,251,3.8,5.8,96,0.00,CLR,,0.00,WeatherDisplay:10.37,2013-02-05 17:00:00,
2013-02-05 11:01:00,20.3,19.3,29.75,WSW,239,4.7,6.9,96,0.00,CLR,,0.00,WeatherDisplay:10.37,2013-02-05 17:01:00,
2013-02-05 11:03:00,20.3,19.3,29.75,SW,229,4.5,6.9,96,0.00,CLR,,0.00,WeatherDisplay:10.37,2013-02-05 17:03:00,
2013-02-05 11:05:00,20.5,19.5,29.75,West,261,3.3,5.8,96,0.00,CLR,,0.00,WeatherDisplay:10.37,2013-02-05 17:05:00,
2013-02-05 11:06:00,20.6,19.6,29.75,West,274,5.3,9.2,96,0.00,CLR,,0.00,WeatherDisplay:10.37,2013-02-05 17:06:00,
2013-02-05 11:08:00,20.7,19.7,29.75,West,261,6.2,9.2,96,0.00,CLR,,0.00,WeatherDisplay:10.37,2013-02-05 17:08:00,
2013-02-05 11:10:00,20.9,19.9,29.75,West,281,5.2,6.9,96,0.00,CLR,,0.00,WeatherDisplay:10.37,2013-02-05 17:10:00,
2013-02-05 11:11:00,20.8,19.8,29.75,WSW,246,4.7,8.1,96,0.00,CLR,,0.00,WeatherDisplay:10.37,2013-02-05 17:11:00,
2013-02-05 11:13:00,20.9,19.9,29.75,WSW,250,5.3,6.9,96,0.00,CLR,,0.00,WeatherDisplay:10.37,2013-02-05 17:13:00,
2013-02-05 11:15:00,21.0,20.0,29.75,WSW,244,4.3,6.9,96,0.00,CLR,,0.00,WeatherDisplay:10.37,2013-02-05 17:15:00,
2013-02-05 11:16:00,21.1,20.1,29.75,SW,234,5.7,8.1,96,0.00,CLR,,0.00,WeatherDisplay:10.37,2013-02-05 17:16:00,
2013-02-05 11:17:00,21.1,20.1,29.75,WSW,237,4.8,8.1,96,0.00,CLR,,0.00,WeatherDisplay:10.37,2013-02-05 17:17:00,
2013-02-05 11:18:00,21.1,20.1,29.75,WSW,251,3.5,6.9,96,0.00,CLR,,0.00,WeatherDisplay:10.37,2013-02-05 17:18:00,
2013-02-05 11:20:00,21.1,20.1,29.74,SW,229,5.3,8.1,96,0.00,CLR,,0.00,WeatherDisplay:10.37,2013-02-05 17:20:00,
2013-02-05 11:21:00,21.2,20.2,29.74,WSW,248,6.0,9.2,96,0.00,CLR,,0.00,WeatherDisplay:10.37,2013-02-05 17:21:00,
2013-02-05 11:22:00,21.2,20.2,29.74,WSW,257,5.9,9.2,96,0.00,CLR,,0.00,WeatherDisplay:10.37,2013-02-05 17:22:00,
2013-02-05 11:23:00,21.3,20.3,29.74,SW,236,4.2,5.8,96,0.00,CLR,,0.00,WeatherDisplay:10.37,2013-02-05 17:23:00,
2013-02-05 11:25:00,21.3,20.3,29.75,SW,229,4.3,6.1,96,0.00,CLR,,0.00,WeatherDisplay:10.37,2013-02-05 17:25:00,
2013-02-05 11:26:00,21.4,20.4,29.75,West,272,3.9,6.9,96,0.00,CLR,,0.00,WeatherDisplay:10.37,2013-02-05 17:26:00,
2013-02-05 11:27:00,21.4,20.4,29.74,WSW,251,3.8,5.8,96,0.00,CLR,,0.00,WeatherDisplay:10.37,2013-02-05 17:27:00,
2013-02-05 11:28:00,21.4,20.4,29.74,West,277,4.8,8.1,96,0.00,CLR,,0.00,WeatherDisplay:10.37,2013-02-05 17:28:00,
2013-02-05 11:30:00,21.6,20.6,29.74,WSW,251,5.1,8.1,96,0.00,CLR,,0.00,WeatherDisplay:10.37,2013-02-05 17:30:00,
2013-02-05 11:31:00,21.7,20.7,29.74,WSW,253,4.7,6.9,96,0.00,CLR,,0.00,WeatherDisplay:10.37,2013-02-05 17:31:00,
2013-02-05 11:32:00,21.7,20.7,29.74,WNW,296,5.0,7.1,96,0.00,CLR,,0.00,WeatherDisplay:10.37,2013-02-05 17:32:00,
2013-02-05 11:33:00,21.7,20.7,29.74,WSW,254,6.4,8.1,96,0.00,CLR,,0.00,WeatherDisplay:10.37,2013-02-05 17:33:00,
2013-02-05 11:35:00,21.9,20.9,29.74,West,261,5.8,8.1,96,0.00,CLR,,0.00,WeatherDisplay:10.37,2013-02-05 17:35:00,
2013-02-05 11:36:00,21.9,20.9,29.74,WSW,250,3.5,9.2,96,0.00,CLR,,0.00,WeatherDisplay:10.37,2013-02-05 17:36:00,
2013-02-05 11:37:00,22.1,21.1,29.75,North,0,4.4,5.8,96,0.00,CLR,,0.00,WeatherDisplay:10.37,2013-02-05 17:37:00,
2013-02-05 11:38:00,22.1,21.1,29.75,WSW,257,5.2,6.9,96,0.00,CLR,,0.00,WeatherDisplay:10.37,2013-02-05 17:38:00,
2013-02-05 11:40:00,22.3,21.3,29.75,West,261,5.9,8.1,96,0.00,CLR,,0.00,WeatherDisplay:10.37,2013-02-05 17:40:00,
2013-02-05 11:41:00,22.4,21.4,29.75,West,263,4.4,8.1,96,0.00,CLR,,0.00,WeatherDisplay:10.37,2013-02-05 17:41:00,
2013-02-05 11:42:00,22.6,21.6,29.75,West,268,4.8,5.8,96,0.00,CLR,,0.00,WeatherDisplay:10.37,2013-02-05 17:42:00,
2013-02-05 11:43:00,22.6,21.6,29.75,WSW,258,5.2,8.1,96,0.00,CLR,,0.00,WeatherDisplay:10.37,2013-02-05 17:43:00,
2013-02-05 11:45:00,22.8,21.8,29.75,SW,229,5.7,6.9,96,0.00,CLR,,0.00,WeatherDisplay:10.37,2013-02-05 17:45:00,
2013-02-05 11:46:00,22.9,21.9,29.75,WSW,257,4.1,9.2,96,0.00,CLR,,0.00,WeatherDisplay:10.37,2013-02-05 17:46:00,
2013-02-05 11:47:00,23.0,22.0,29.75,West,278,5.2,8.1,96,0.00,CLR,,0.00,WeatherDisplay:10.37,2013-02-05 17:47:00,
2013-02-05 11:48:00,23.1,22.1,29.75,WNW,295,5.7,6.9,96,0.00,CLR,,0.00,WeatherDisplay:10.37,2013-02-05 17:48:00,
2013-02-05 11:50:00,23.2,22.2,29.74,WSW,257,5.5,9.2,96,0.00,CLR,,0.00,WeatherDisplay:10.37,2013-02-05 17:50:00,
2013-02-05 11:51:00,23.3,22.3,29.75,WSW,240,5.8,8.1,96,0.00,CLR,,0.00,WeatherDisplay:10.37,2013-02-05 17:51:00,
2013-02-05 11:53:00,23.3,22.3,29.74,West,263,4.8,6.9,96,0.00,CLR,,0.00,WeatherDisplay:10.37,2013-02-05 17:53:00,
2013-02-05 11:55:00,23.5,22.5,29.74,WSW,243,5.9,8.1,96,0.00,CLR,,0.00,WeatherDisplay:10.37,2013-02-05 17:55:00,
2013-02-05 11:56:00,23.5,22.5,29.74,WNW,285,5.3,8.1,96,0.00,CLR,,0.00,WeatherDisplay:10.37,2013-02-05 17:56:00,
2013-02-05 11:58:00,23.5,22.5,29.74,WSW,256,4.4,8.1,96,0.00,CLR,,0.00,WeatherDisplay:10.37,2013-02-05 17:58:00,
2013-02-05 12:01:00,23.6,22.6,29.74,West,268,5.1,8.1,96,0.00,CLR,,0.00,WeatherDisplay:10.37,2013-02-05 18:01:00,
2013-02-05 12:03:00,23.6,22.6,29.75,WSW,250,4.9,7.8,96,0.00,CLR,,0.00,WeatherDisplay:10.37,2013-02-05 18:03:00,
2013-02-05 12:06:00,23.6,22.6,29.75,WSW,243,7.1,9.2,96,0.00,CLR,,0.00,WeatherDisplay:10.37,2013-02-05 18:06:00,
2013-02-05 12:07:00,23.7,22.7,29.75,WNW,288,5.2,8.1,96,0.00,CLR,,0.00,WeatherDisplay:10.37,2013-02-05 18:07:00,
2013-02-05 12:08:00,23.7,22.7,29.75,West,268,5.2,10.4,96,0.00,CLR,,0.00,WeatherDisplay:10.37,2013-02-05 18:08:00,
2013-02-05 12:09:00,23.8,22.8,29.75,WSW,253,5.5,8.1,96,0.00,CLR,,0.00,WeatherDisplay:10.37,2013-02-05 18:09:00,
2013-02-05 12:11:00,23.7,22.7,29.75,WNW,289,4.6,9.2,96,0.00,CLR,,0.00,WeatherDisplay:10.37,2013-02-05 18:11:00,
2013-02-05 12:12:00,23.8,22.8,29.75,West,271,4.5,5.8,96,0.00,CLR,,0.00,WeatherDisplay:10.37,2013-02-05 18:12:00,
2013-02-05 12:13:00,23.9,22.9,29.75,West,271,3.8,4.6,96,0.00,CLR,,0.00,WeatherDisplay:10.37,2013-02-05 18:13:00,
2013-02-05 12:14:00,24.0,23.0,29.75,WNW,292,3.6,5.8,96,0.00,CLR,,0.00,WeatherDisplay:10.37,2013-02-05 18:14:00,
2013-02-05 12:16:00,23.9,22.9,29.75,WNW,301,4.6,5.8,96,0.00,CLR,,0.00,WeatherDisplay:10.37,2013-02-05 18:16:00,
2013-02-05 12:17:00,24.1,23.1,29.75,West,281,4.4,5.8,96,0.00,CLR,,0.00,WeatherDisplay:10.37,2013-02-05 18:17:00,
2013-02-05 12:18:00,24.1,23.1,29.74,WSW,254,6.1,7.5,96,0.00,CLR,,0.00,WeatherDisplay:10.37,2013-02-05 18:18:00,
2013-02-05 12:19:00,24.1,23.1,29.75,West,271,6.9,8.1,96,0.00,CLR,,0.00,WeatherDisplay:10.37,2013-02-05 18:19:00,
2013-02-05 12:21:00,24.1,23.1,29.75,WNW,291,3.7,6.9,96,0.00,CLR,,0.00,WeatherDisplay:10.37,2013-02-05 18:21:00,
2013-02-05 12:22:00,24.2,23.2,29.75,West,261,6.2,9.2,96,0.00,CLR,,0.00,WeatherDisplay:10.37,2013-02-05 18:22:00,
2013-02-05 12:23:00,24.1,23.1,29.75,WNW,292,3.8,9.2,96,0.00,CLR,,0.00,WeatherDisplay:10.37,2013-02-05 18:23:00,
2013-02-05 12:24:00,24.2,23.2,29.75,West,265,4.0,6.3,96,0.00,CLR,,0.00,WeatherDisplay:10.37,2013-02-05 18:24:00,
2013-02-05 12:26:00,24.2,23.2,29.74,WSW,254,4.4,5.8,96,0.00,CLR,,0.00,WeatherDisplay:10.37,2013-02-05 18:26:00,
2013-02-05 12:27:00,24.4,23.4,29.74,WNW,287,4.1,5.8,96,0.00,CLR,,0.00,WeatherDisplay:10.37,2013-02-05 18:27:00,
2013-02-05 12:28:00,24.5,23.5,29.74,WSW,250,6.0,6.0,96,0.00,CLR,,0.00,WeatherDisplay:10.37,2013-02-05 18:28:00,
2013-02-05 12:29:00,24.5,23.5,29.74,West,278,6.4,9.2,96,0.00,CLR,,0.00,WeatherDisplay:10.37,2013-02-05 18:29:00,
2013-02-05 12:31:00,24.7,23.7,29.74,West,270,5.1,9.2,96,0.00,CLR,,0.00,WeatherDisplay:10.37,2013-02-05 18:31:00,
2013-02-05 12:32:00,24.7,23.7,29.74,WSW,239,2.5,8.1,96,0.00,CLR,,0.00,WeatherDisplay:10.37,2013-02-05 18:32:00,
2013-02-05 12:34:00,24.8,23.8,29.74,WSW,256,5.5,9.9,96,0.00,CLR,,0.00,WeatherDisplay:10.37,2013-02-05 18:34:00,
2013-02-05 12:37:00,24.9,23.9,29.74,West,263,5.8,9.2,96,0.00,CLR,,0.00,WeatherDisplay:10.37,2013-02-05 18:37:00,
2013-02-05 12:39:00,24.9,23.9,29.75,WSW,237,3.9,10.4,96,0.00,CLR,,0.00,WeatherDisplay:10.37,2013-02-05 18:39:00,
2013-02-05 12:40:00,24.9,23.9,29.75,West,280,4.8,9.2,96,0.00,CLR,,0.00,WeatherDisplay:10.37,2013-02-05 18:40:00,
2013-02-05 12:42:00,25.0,24.0,29.75,West,278,4.9,8.1,96,0.00,CLR,,0.00,WeatherDisplay:10.37,2013-02-05 18:42:00,
2013-02-05 12:44:00,25.0,24.0,29.75,WNW,287,6.2,9.2,96,0.00,CLR,,0.00,WeatherDisplay:10.37,2013-02-05 18:44:00,
2013-02-05 12:45:00,25.0,24.0,29.75,West,271,4.8,6.9,96,0.00,CLR,,0.00,WeatherDisplay:10.37,2013-02-05 18:45:00,
2013-02-05 12:47:00,24.9,23.9,29.75,West,264,7.4,12.2,96,0.00,CLR,,0.00,WeatherDisplay:10.37,2013-02-05 18:47:00,
2013-02-05 12:49:00,24.8,23.8,29.75,SW,236,5.5,8.1,96,0.00,CLR,,0.00,WeatherDisplay:10.37,2013-02-05 18:49:00,
2013-02-05 12:50:00,24.8,23.8,29.75,WNW,287,4.2,9.2,96,0.00,CLR,,0.00,WeatherDisplay:10.37,2013-02-05 18:50:00,
2013-02-05 12:52:00,24.8,23.8,29.75,WSW,257,3.9,7.8,96,0.00,CLR,,0.00,WeatherDisplay:10.37,2013-02-05 18:52:00,
2013-02-05 12:54:00,24.9,23.9,29.75,WNW,299,4.5,9.2,96,0.00,CLR,,0.00,WeatherDisplay:10.37,2013-02-05 18:54:00,
2013-02-05 12:55:00,25.0,24.0,29.75,West,265,4.9,8.1,96,0.00,CLR,,0.00,WeatherDisplay:10.37,2013-02-05 18:55:00,
2013-02-05 12:57:00,24.9,23.9,29.75,WNW,285,4.8,6.9,96,0.00,CLR,,0.00,WeatherDisplay:10.37,2013-02-05 18:57:00,
2013-02-05 12:59:00,25.0,24.0,29.75,WSW,253,3.6,4.6,96,0.00,CLR,,0.00,WeatherDisplay:10.37,2013-02-05 18:59:00,
2013-02-05 13:00:00,25.0,24.0,29.75,West,260,3.1,5.8,96,0.00,CLR,,0.00,WeatherDisplay:10.37,2013-02-05 19:00:00,
2013-02-05 13:02:00,25.1,24.1,29.75,West,274,4.7,12.7,96,0.00,CLR,,0.00,WeatherDisplay:10.37,2013-02-05 19:02:00,
2013-02-05 13:03:00,25.1,24.1,29.75,WSW,258,6.4,12.7,96,0.00,CLR,,0.00,WeatherDisplay:10.37,2013-02-05 19:03:00,
2013-02-05 13:04:00,25.1,24.1,29.76,WNW,299,4.2,5.8,96,0.00,CLR,,0.00,WeatherDisplay:10.37,2013-02-05 19:04:00,
2013-02-05 13:06:00,25.1,24.1,29.76,West,263,6.1,9.2,96,0.00,CLR,,0.00,WeatherDisplay:10.37,2013-02-05 19:06:00,
2013-02-05 13:07:00,25.1,24.1,29.76,WNW,299,4.6,8.1,96,0.00,CLR,,0.00,WeatherDisplay:10.37,2013-02-05 19:07:00,
2013-02-05 13:08:00,25.0,24.0,29.76,West,278,5.1,9.2,96,0.00,CLR,,0.00,WeatherDisplay:10.37,2013-02-05 19:08:00,
2013-02-05 13:09:00,25.1,24.1,29.76,West,271,3.7,4.6,96,0.00,CLR,,0.00,WeatherDisplay:10.37,2013-02-05 19:09:00,
2013-02-05 13:11:00,25.1,24.1,29.76,West,267,3.6,4.6,96,0.00,CLR,,0.00,WeatherDisplay:10.37,2013-02-05 19:11:00,
2013-02-05 13:12:00,25.1,24.1,29.76,West,260,3.8,6.2,96,0.00,CLR,,0.00,WeatherDisplay:10.37,2013-02-05 19:12:00,
2013-02-05 13:13:00,25.1,24.1,29.76,WNW,292,4.8,6.9,96,0.00,CLR,,0.00,WeatherDisplay:10.37,2013-02-05 19:13:00,
2013-02-05 13:14:00,25.1,24.1,29.76,WNW,288,6.0,6.9,96,0.00,CLR,,0.00,WeatherDisplay:10.37,2013-02-05 19:14:00,
2013-02-05 13:16:00,25.0,24.0,29.76,SW,233,5.1,8.1,96,0.00,CLR,,0.00,WeatherDisplay:10.37,2013-02-05 19:16:00,
2013-02-05 13:17:00,24.9,23.9,29.76,WNW,284,4.6,6.9,96,0.00,CLR,,0.00,WeatherDisplay:10.37,2013-02-05 19:17:00,
2013-02-05 13:18:00,25.0,24.0,29.76,WNW,296,4.3,6.9,96,0.00,CLR,,0.00,WeatherDisplay:10.37,2013-02-05 19:18:00,
2013-02-05 13:20:00,25.0,24.0,29.76,West,277,2.9,5.2,96,0.00,CLR,,0.00,WeatherDisplay:10.37,2013-02-05 19:20:00,
2013-02-05 13:21:00,25.1,24.1,29.76,WNW,292,4.4,8.1,96,0.00,CLR,,0.00,WeatherDisplay:10.37,2013-02-05 19:21:00,
2013-02-05 13:22:00,25.1,24.1,29.76,West,281,4.1,6.9,96,0.00,CLR,,0.00,WeatherDisplay:10.37,2013-02-05 19:22:00,
2013-02-05 13:23:00,25.1,24.1,29.76,NW,309,3.9,5.8,96,0.00,CLR,,0.00,WeatherDisplay:10.37,2013-02-05 19:23:00,
2013-02-05 13:25:00,25.2,24.2,29.76,West,264,4.2,6.9,96,0.00,CLR,,0.00,WeatherDisplay:10.37,2013-02-05 19:25:00,
2013-02-05 13:26:00,25.3,24.3,29.76,WNW,302,5.3,5.3,96,0.00,CLR,,0.00,WeatherDisplay:10.37,2013-02-05 19:26:00,
2013-02-05 13:27:00,25.3,24.3,29.76,WNW,282,3.5,8.1,96,0.00,CLR,,0.00,WeatherDisplay:10.37,2013-02-05 19:27:00,
2013-02-05 13:28:00,25.3,24.3,29.76,West,272,4.1,6.9,96,0.00,CLR,,0.00,WeatherDisplay:10.37,2013-02-05 19:28:00,
2013-02-05 13:30:00,25.5,24.5,29.76,WNW,296,4.9,6.9,96,0.00,CLR,,0.00,WeatherDisplay:10.37,2013-02-05 19:30:00,
2013-02-05 13:32:00,25.6,24.6,29.76,WNW,288,3.6,6.9,96,0.00,CLR,,0.00,WeatherDisplay:10.37,2013-02-05 19:32:00,
2013-02-05 13:33:00,25.6,24.6,29.76,WSW,246,4.6,8.1,96,0.00,CLR,,0.00,WeatherDisplay:10.37,2013-02-05 19:33:00,
2013-02-05 13:35:00,25.7,24.7,29.76,WNW,288,4.3,7.0,96,0.00,CLR,,0.00,WeatherDisplay:10.37,2013-02-05 19:35:00,
2013-02-05 13:37:00,25.7,24.7,29.76,WNW,288,5.3,8.1,96,0.00,CLR,,0.00,WeatherDisplay:10.37,2013-02-05 19:37:00,
2013-02-05 13:38:00,25.7,24.7,29.76,WNW,295,4.3,5.8,96,0.00,CLR,,0.00,WeatherDisplay:10.37,2013-02-05 19:38:00,
2013-02-05 13:40:00,25.8,24.8,29.76,NW,311,5.2,5.8,96,0.00,CLR,,0.00,WeatherDisplay:10.37,2013-02-05 19:40:00,
2013-02-05 13:42:00,25.9,24.9,29.77,NW,308,3.5,6.9,96,0.00,CLR,,0.00,WeatherDisplay:10.37,2013-02-05 19:42:00,
2013-02-05 13:43:00,26.0,25.0,29.77,NW,323,3.7,4.6,96,0.00,CLR,,0.00,WeatherDisplay:10.37,2013-02-05 19:43:00,
2013-02-05 13:45:00,26.1,25.1,29.77,WNW,287,3.2,8.1,96,0.00,CLR,,0.00,WeatherDisplay:10.37,2013-02-05 19:45:00,
2013-02-05 13:47:00,26.1,25.1,29.76,WNW,285,5.6,9.8,96,0.00,CLR,,0.00,WeatherDisplay:10.37,2013-02-05 19:47:00,
2013-02-05 13:48:00,26.1,25.1,29.77,WNW,289,7.2,9.2,96,0.00,CLR,,0.00,WeatherDisplay:10.37,2013-02-05 19:48:00,
2013-02-05 13:50:00,26.2,25.2,29.77,WNW,296,2.6,6.9,96,0.00,CLR,,0.00,WeatherDisplay:10.37,2013-02-05 19:50:00,
2013-02-05 13:52:00,26.4,25.4,29.77,WNW,291,3.4,6.9,96,0.00,CLR,,0.00,WeatherDisplay:10.37,2013-02-05 19:52:00,
2013-02-05 13:53:00,26.4,25.4,29.77,WNW,287,2.7,4.6,96,0.00,CLR,,0.00,WeatherDisplay:10.37,2013-02-05 19:53:00,
2013-02-05 13:55:00,26.5,25.5,29.77,West,264,3.9,6.9,96,0.00,CLR,,0.00,WeatherDisplay:10.37,2013-02-05 19:55:00,
2013-02-05 13:58:00,26.6,25.6,29.77,West,281,4.8,8.3,96,0.00,CLR,,0.00,WeatherDisplay:10.37,2013-02-05 19:58:00,
2013-02-05 14:00:00,26.7,25.5,29.77,West,275,2.6,5.8,95,0.00,CLR,,0.00,WeatherDisplay:10.37,2013-02-05 20:00:00,
2013-02-05 14:03:00,26.8,25.8,29.77,WNW,285,3.9,6.9,96,0.00,CLR,,0.00,WeatherDisplay:10.37,2013-02-05 20:03:00,
2013-02-05 14:04:00,26.8,25.8,29.77,WNW,299,3.6,6.9,96,0.00,CLR,,0.00,WeatherDisplay:10.37,2013-02-05 20:04:00,
2013-02-05 14:06:00,26.8,25.8,29.77,WNW,296,3.8,6.9,96,0.00,CLR,,0.00,WeatherDisplay:10.37,2013-02-05 20:06:00,
2013-02-05 14:08:00,26.8,25.8,29.77,WSW,258,3.0,8.1,96,0.00,CLR,,0.00,WeatherDisplay:10.37,2013-02-05 20:08:00,
2013-02-05 14:09:00,26.9,25.9,29.77,WNW,301,3.2,5.8,96,0.00,CLR,,0.00,WeatherDisplay:10.37,2013-02-05 20:09:00,
2013-02-05 14:11:00,27.0,26.0,29.77,WNW,288,4.3,8.1,96,0.00,CLR,,0.00,WeatherDisplay:10.37,2013-02-05 20:11:00,
2013-02-05 14:13:00,26.9,25.7,29.77,WNW,301,5.2,7.0,95,0.00,CLR,,0.00,WeatherDisplay:10.37,2013-02-05 20:13:00,
2013-02-05 14:14:00,26.9,25.7,29.77,WNW,288,5.8,7.0,95,0.00,CLR,,0.00,WeatherDisplay:10.37,2013-02-05 20:14:00,
2013-02-05 14:16:00,26.9,25.7,29.77,WNW,287,2.4,4.6,95,0.00,CLR,,0.00,WeatherDisplay:10.37,2013-02-05 20:16:00,
2013-02-05 14:18:00,26.9,25.7,29.77,WNW,282,3.0,5.8,95,0.00,CLR,,0.00,WeatherDisplay:10.37,2013-02-05 20:18:00,
2013-02-05 14:19:00,26.8,25.6,29.77,WNW,299,2.9,4.6,95,0.00,CLR,,0.00,WeatherDisplay:10.37,2013-02-05 20:19:00,
2013-02-05 14:20:00,26.9,25.7,29.77,WNW,288,3.8,4.8,95,0.00,CLR,,0.00,WeatherDisplay:10.37,2013-02-05 20:20:00,
2013-02-05 14:21:00,26.9,25.7,29.77,SW,224,3.4,4.6,95,0.00,CLR,,0.00,WeatherDisplay:10.37,2013-02-05 20:21:00,
2013-02-05 14:23:00,26.9,25.7,29.78,NW,311,0.0,0.0,95,0.00,CLR,,0.00,WeatherDisplay:10.37,2013-02-05 20:23:00,
2013-02-05 14:24:00,26.9,25.7,29.78,NW,311,0.0,0.0,95,0.00,CLR,,0.00,WeatherDisplay:10.37,2013-02-05 20:24:00,
2013-02-05 14:25:00,27.0,25.8,29.78,NW,311,0.0,0.0,95,0.00,CLR,,0.00,WeatherDisplay:10.37,2013-02-05 20:25:00,
2013-02-05 14:26:00,27.0,25.8,29.78,WNW,291,3.3,6.0,95,0.00,CLR,,0.00,WeatherDisplay:10.37,2013-02-05 20:26:00,
2013-02-05 14:28:00,27.1,25.9,29.78,WNW,298,3.3,4.6,95,0.00,CLR,,0.00,WeatherDisplay:10.37,2013-02-05 20:28:00,
2013-02-05 14:29:00,27.1,25.9,29.78,WNW,301,2.3,4.6,95,0.00,CLR,,0.00,WeatherDisplay:10.37,2013-02-05 20:29:00,
2013-02-05 14:30:00,27.1,25.9,29.78,WSW,237,2.4,4.6,95,0.00,CLR,,0.00,WeatherDisplay:10.37,2013-02-05 20:30:00,
2013-02-05 14:31:00,27.1,25.9,29.78,West,281,0.4,3.5,95,0.00,CLR,,0.00,WeatherDisplay:10.37,2013-02-05 20:31:00,
2013-02-05 14:33:00,27.2,26.0,29.78,West,278,2.9,4.6,95,0.00,CLR,,0.00,WeatherDisplay:10.37,2013-02-05 20:33:00,
2013-02-05 14:34:00,27.3,26.1,29.78,NW,309,3.3,4.6,95,0.00,CLR,,0.00,WeatherDisplay:10.37,2013-02-05 20:34:00,
2013-02-05 14:35:00,27.2,26.0,29.78,WNW,288,2.2,4.6,95,0.00,CLR,,0.00,WeatherDisplay:10.37,2013-02-05 20:35:00,
2013-02-05 14:36:00,27.3,26.1,29.78,WNW,301,3.3,3.5,95,0.00,CLR,,0.00,WeatherDisplay:10.37,2013-02-05 20:36:00,
2013-02-05 14:38:00,27.4,26.2,29.78,West,268,3.2,5.8,95,0.00,CLR,,0.00,WeatherDisplay:10.37,2013-02-05 20:38:00,
2013-02-05 14:39:00,27.3,26.1,29.78,WNW,292,2.2,4.6,95,0.00,CLR,,0.00,WeatherDisplay:10.37,2013-02-05 20:39:00,
2013-02-05 14:40:00,27.4,26.2,29.78,WNW,295,1.7,7.2,95,0.00,CLR,,0.00,WeatherDisplay:10.37,2013-02-05 20:40:00,
2013-02-05 14:41:00,27.4,26.2,29.78,WNW,291,3.5,6.9,95,0.00,CLR,,0.00,WeatherDisplay:10.37,2013-02-05 20:41:00,
2013-02-05 14:44:00,27.5,26.3,29.79,WNW,288,1.1,3.8,95,0.00,CLR,,0.00,WeatherDisplay:10.37,2013-02-05 20:44:00,
2013-02-05 14:45:00,27.4,26.2,29.79,WNW,302,2.8,4.6,95,0.00,CLR,,0.00,WeatherDisplay:10.37,2013-02-05 20:45:00,
2013-02-05 14:47:00,27.4,26.2,29.79,WNW,302,2.9,3.5,95,0.00,CLR,,0.00,WeatherDisplay:10.37,2013-02-05 20:47:00,
2013-02-05 14:49:00,27.5,26.3,29.79,WNW,296,2.5,4.6,95,0.00,CLR,,0.00,WeatherDisplay:10.37,2013-02-05 20:49:00,
2013-02-05 14:50:00,27.4,26.2,29.79,WNW,295,3.6,5.8,95,0.00,CLR,,0.00,WeatherDisplay:10.37,2013-02-05 20:50:00,
2013-02-05 14:52:00,27.6,26.4,29.80,NNE,16,1.6,4.6,95,0.00,CLR,,0.00,WeatherDisplay:10.37,2013-02-05 20:52:00,
2013-02-05 14:54:00,27.5,26.3,29.80,WNW,292,2.2,3.5,95,0.00,CLR,,0.00,WeatherDisplay:10.37,2013-02-05 20:54:00,
2013-02-05 14:55:00,27.6,26.4,29.80,NW,325,2.2,4.6,95,0.00,CLR,,0.00,WeatherDisplay:10.37,2013-02-05 20:55:00,
2013-02-05 14:57:00,27.6,26.4,29.80,WNW,302,4.0,5.8,95,0.00,CLR,,0.00,WeatherDisplay:10.37,2013-02-05 20:57:00,
2013-02-05 14:59:00,27.6,26.4,29.80,WNW,296,3.3,5.8,95,0.00,CLR,,0.00,WeatherDisplay:10.37,2013-02-05 20:59:00,
2013-02-05 15:00:00,27.4,26.2,29.80,NW,323,3.8,5.8,95,0.00,CLR,,0.00,WeatherDisplay:10.37,2013-02-05 21:00:00,
2013-02-05 15:02:00,27.5,26.3,29.80,WNW,295,3.1,4.6,95,0.00,CLR,,0.00,WeatherDisplay:10.37,2013-02-05 21:02:00,
2013-02-05 15:04:00,27.6,26.4,29.80,NW,320,3.8,6.3,95,0.00,CLR,,0.00,WeatherDisplay:10.37,2013-02-05 21:04:00,
2013-02-05 15:05:00,27.5,26.3,29.80,NW,318,3.9,6.9,95,0.00,CLR,,0.00,WeatherDisplay:10.37,2013-02-05 21:05:00,
2013-02-05 15:06:00,27.6,26.4,29.80,NNW,333,3.2,4.6,95,0.00,CLR,,0.00,WeatherDisplay:10.37,2013-02-05 21:06:00,
2013-02-05 15:08:00,27.5,26.3,29.81,WNW,298,3.8,6.9,95,0.00,CLR,,0.00,WeatherDisplay:10.37,2013-02-05 21:08:00,
2013-02-05 15:09:00,27.4,25.9,29.81,NW,313,3.9,6.9,94,0.00,CLR,,0.00,WeatherDisplay:10.37,2013-02-05 21:09:00,
2013-02-05 15:10:00,27.5,26.0,29.81,NNW,333,6.0,8.1,94,0.00,CLR,,0.01,WeatherDisplay:10.37,2013-02-05 21:10:00,
2013-02-05 15:11:00,27.4,25.9,29.81,NW,305,6.0,10.4,94,0.01,RA,,0.01,WeatherDisplay:10.37,2013-02-05 21:11:00,
2013-02-05 15:13:00,27.5,26.0,29.81,West,271,2.9,7.8,94,0.01,RA,,0.01,WeatherDisplay:10.37,2013-02-05 21:13:00,
2013-02-05 15:15:00,27.4,25.9,29.81,NW,318,6.1,8.1,94,0.01,RA,,0.01,WeatherDisplay:10.37,2013-02-05 21:15:00,
2013-02-05 15:16:00,27.4,25.9,29.81,NW,325,5.0,8.1,94,0.01,RA,,0.01,WeatherDisplay:10.37,2013-02-05 21:16:00,
2013-02-05 15:18:00,27.4,25.9,29.81,NW,326,2.7,4.6,94,0.01,RA,,0.01,WeatherDisplay:10.37,2013-02-05 21:18:00,
2013-02-05 15:20:00,27.3,25.5,29.81,WNW,288,3.2,5.8,93,0.01,RA,,0.01,WeatherDisplay:10.37,2013-02-05 21:20:00,
2013-02-05 15:21:00,27.3,25.5,29.81,WNW,295,0.9,3.5,93,0.01,,,0.01,WeatherDisplay:10.37,2013-02-05 21:21:00,
2013-02-05 15:23:00,27.4,25.6,29.81,NNW,329,2.6,5.3,93,0.01,CLR,,0.01,WeatherDisplay:10.37,2013-02-05 21:23:00,
2013-02-05 15:25:00,27.4,25.6,29.81,North,357,4.3,9.2,93,0.01,CLR,,0.01,WeatherDisplay:10.37,2013-02-05 21:25:00,
2013-02-05 15:26:00,27.4,25.4,29.81,NNW,333,3.1,5.8,92,0.01,CLR,,0.01,WeatherDisplay:10.37,2013-02-05 21:26:00,
2013-02-05 15:28:00,27.4,25.4,29.81,NW,318,4.5,7.4,92,0.01,CLR,,0.01,WeatherDisplay:10.37,2013-02-05 21:28:00,
2013-02-05 15:30:00,27.4,25.4,29.81,NW,318,2.9,6.9,92,0.01,CLR,,0.01,WeatherDisplay:10.37,2013-02-05 21:30:00,
2013-02-05 15:31:00,27.4,25.4,29.81,NNE,18,3.7,5.8,92,0.01,CLR,,0.01,WeatherDisplay:10.37,2013-02-05 21:31:00,
2013-02-05 15:33:00,27.4,25.1,29.81,WNW,296,4.5,6.9,91,0.01,CLR,,0.01,WeatherDisplay:10.37,2013-02-05 21:33:00,
2013-02-05 15:35:00,27.4,24.9,29.81,WSW,247,3.0,9.2,90,0.01,CLR,,0.01,WeatherDisplay:10.37,2013-02-05 21:35:00,
2013-02-05 15:36:00,27.5,25.0,29.81,NW,326,2.6,4.6,90,0.01,CLR,,0.01,WeatherDisplay:10.37,2013-02-05 21:36:00,
2013-02-05 15:38:00,27.4,24.9,29.81,NW,304,5.0,9.2,90,0.01,CLR,,0.01,WeatherDisplay:10.37,2013-02-05 21:38:00,
2013-02-05 15:40:00,27.3,24.5,29.82,WNW,288,4.0,8.1,89,0.01,CLR,,0.01,WeatherDisplay:10.37,2013-02-05 21:40:00,
2013-02-05 15:41:00,27.3,24.5,29.82,NW,308,3.8,10.5,89,0.01,CLR,,0.01,WeatherDisplay:10.37,2013-02-05 21:41:00,
2013-02-05 15:43:00,27.4,24.3,29.82,NW,315,6.7,10.4,88,0.01,CLR,,0.01,WeatherDisplay:10.37,2013-02-05 21:43:00,
2013-02-05 15:46:00,27.3,24.2,29.82,NW,312,3.6,8.1,88,0.01,CLR,,0.01,WeatherDisplay:10.37,2013-02-05 21:46:00,
2013-02-05 15:48:00,27.3,24.2,29.82,NNW,347,4.9,8.1,88,0.01,CLR,,0.01,WeatherDisplay:10.37,2013-02-05 21:48:00,
2013-02-05 15:51:00,27.2,24.1,29.82,West,272,0.7,5.6,88,0.01,CLR,,0.01,WeatherDisplay:10.37,2013-02-05 21:51:00,
2013-02-05 15:52:00,27.3,24.2,29.82,NNW,344,4.7,8.1,88,0.01,CLR,,0.01,WeatherDisplay:10.37,2013-02-05 21:52:00,
2013-02-05 15:54:00,27.2,23.8,29.82,West,280,3.8,5.8,87,0.01,CLR,,0.01,WeatherDisplay:10.37,2013-02-05 21:54:00,
2013-02-05 15:56:00,27.2,23.8,29.83,WNW,291,4.0,8.1,87,0.01,CLR,,0.01,WeatherDisplay:10.37,2013-02-05 21:56:00,
2013-02-05 15:57:00,27.2,23.8,29.83,WNW,292,4.4,7.1,87,0.01,CLR,,0.01,WeatherDisplay:10.37,2013-02-05 21:57:00,
2013-02-05 15:59:00,27.2,23.8,29.83,WNW,301,4.9,8.1,87,0.01,CLR,,0.01,WeatherDisplay:10.37,2013-02-05 21:59:00,
2013-02-05 16:01:00,27.2,23.6,29.83,NW,316,5.9,10.4,86,0.01,CLR,,0.01,WeatherDisplay:10.37,2013-02-05 22:01:00,
2013-02-05 16:02:00,27.2,23.6,29.83,North,360,6.4,11.5,86,0.01,CLR,,0.01,WeatherDisplay:10.37,2013-02-05 22:02:00,
2013-02-05 16:04:00,27.1,23.5,29.83,WNW,282,5.4,9.2,86,0.01,CLR,,0.01,WeatherDisplay:10.37,2013-02-05 22:04:00,
2013-02-05 16:06:00,27.2,23.6,29.83,NNW,339,7.6,11.5,86,0.01,CLR,,0.01,WeatherDisplay:10.37,2013-02-05 22:06:00,
2013-02-05 16:07:00,27.2,23.6,29.83,NW,319,6.6,12.7,86,0.01,CLR,,0.01,WeatherDisplay:10.37,2013-02-05 22:07:00,
2013-02-05 16:08:00,27.2,23.6,29.83,West,265,5.0,10.4,86,0.01,CLR,,0.01,WeatherDisplay:10.37,2013-02-05 22:08:00,
2013-02-05 16:09:00,27.1,23.5,29.83,North,353,7.1,11.5,86,0.01,CLR,,0.01,WeatherDisplay:10.37,2013-02-05 22:09:00,
2013-02-05 16:11:00,27.1,23.5,29.83,NW,322,4.9,6.9,86,0.00,CLR,,0.01,WeatherDisplay:10.37,2013-02-05 22:11:00,
2013-02-05 16:12:00,27.1,23.5,29.83,NW,325,5.7,12.7,86,0.00,CLR,,0.01,WeatherDisplay:10.37,2013-02-05 22:12:00,
2013-02-05 16:13:00,27.1,23.5,29.83,NW,312,7.2,12.7,86,0.00,CLR,,0.01,WeatherDisplay:10.37,2013-02-05 22:13:00,
2013-02-05 16:14:00,27.1,23.5,29.84,WNW,296,8.1,15.0,86,0.00,CLR,,0.01,WeatherDisplay:10.37,2013-02-05 22:14:00,
2013-02-05 16:16:00,27.0,23.4,29.84,WNW,282,7.4,13.8,86,0.00,CLR,,0.01,WeatherDisplay:10.37,2013-02-05 22:16:00,
2013-02-05 16:17:00,27.0,23.4,29.84,NW,325,7.3,12.7,86,0.00,CLR,,0.01,WeatherDisplay:10.37,2013-02-05 22:17:00,
2013-02-05 16:18:00,27.0,23.4,29.84,North,11,6.1,8.5,86,0.00,CLR,,0.01,WeatherDisplay:10.37,2013-02-05 22:18:00,
2013-02-05 16:19:00,27.0,23.4,29.84,NNE,21,7.7,11.5,86,0.00,CLR,,0.01,WeatherDisplay:10.37,2013-02-05 22:19:00,
2013-02-05 16:21:00,26.9,23.3,29.84,NNW,333,8.0,16.1,86,0.00,CLR,,0.01,WeatherDisplay:10.37,2013-02-05 22:21:00,
2013-02-05 16:22:00,27.0,23.4,29.84,NW,319,6.9,12.7,86,0.00,CLR,,0.01,WeatherDisplay:10.37,2013-02-05 22:22:00,
2013-02-05 16:23:00,26.9,23.3,29.84,East,85,2.6,4.8,86,0.00,CLR,,0.01,WeatherDisplay:10.37,2013-02-05 22:23:00,
2013-02-05 16:24:00,27.0,23.4,29.84,WNW,301,5.7,10.4,86,0.00,CLR,,0.01,WeatherDisplay:10.37,2013-02-05 22:24:00,
2013-02-05 16:26:00,26.9,23.3,29.84,NW,309,3.8,10.4,86,0.00,CLR,,0.01,WeatherDisplay:10.37,2013-02-05 22:26:00,
2013-02-05 16:27:00,26.8,23.2,29.84,NNW,342,6.4,9.2,86,0.00,CLR,,0.01,WeatherDisplay:10.37,2013-02-05 22:27:00,
2013-02-05 16:28:00,26.8,23.2,29.85,WNW,294,9.1,15.0,86,0.00,CLR,,0.01,WeatherDisplay:10.37,2013-02-05 22:28:00,
2013-02-05 16:29:00,26.9,23.3,29.85,NW,304,6.6,11.5,86,0.00,CLR,,0.01,WeatherDisplay:10.37,2013-02-05 22:29:00,
2013-02-05 16:31:00,26.8,23.2,29.85,WNW,292,6.2,8.8,86,0.00,CLR,,0.01,WeatherDisplay:10.37,2013-02-05 22:31:00,
2013-02-05 16:32:00,26.8,23.2,29.85,NW,316,6.4,10.4,86,0.00,CLR,,0.01,WeatherDisplay:10.37,2013-02-05 22:32:00,
2013-02-05 16:33:00,26.8,23.2,29.85,NNW,332,6.9,10.4,86,0.00,CLR,,0.01,WeatherDisplay:10.37,2013-02-05 22:33:00,
2013-02-05 16:34:00,26.8,23.2,29.85,NW,319,4.5,9.2,86,0.00,CLR,,0.01,WeatherDisplay:10.37,2013-02-05 22:34:00,
2013-02-05 16:36:00,26.8,23.2,29.85,WNW,296,6.5,9.2,86,0.00,CLR,,0.01,WeatherDisplay:10.37,2013-02-05 22:36:00,
2013-02-05 16:37:00,26.8,23.2,29.85,WNW,298,4.5,10.4,86,0.00,CLR,,0.01,WeatherDisplay:10.37,2013-02-05 22:37:00,
2013-02-05 16:38:00,26.7,23.1,29.85,WNW,282,4.2,6.9,86,0.00,CLR,,0.01,WeatherDisplay:10.37,2013-02-05 22:38:00,
2013-02-05 16:39:00,26.7,23.1,29.85,NW,322,4.6,8.1,86,0.00,CLR,,0.01,WeatherDisplay:10.37,2013-02-05 22:39:00,
2013-02-05 16:41:00,26.7,23.1,29.85,NNW,344,5.4,8.1,86,0.00,CLR,,0.01,WeatherDisplay:10.37,2013-02-05 22:41:00,
2013-02-05 16:43:00,26.7,23.1,29.85,NNW,336,5.7,8.1,86,0.00,CLR,,0.01,WeatherDisplay:10.37,2013-02-05 22:43:00,
2013-02-05 16:45:00,26.8,23.2,29.86,North,3,5.3,6.9,86,0.00,CLR,,0.01,WeatherDisplay:10.37,2013-02-05 22:45:00,
2013-02-05 16:46:00,26.7,23.1,29.85,WNW,296,2.2,9.2,86,0.00,CLR,,0.01,WeatherDisplay:10.37,2013-02-05 22:46:00,
2013-02-05 16:48:00,26.6,23.0,29.86,WNW,296,2.9,6.9,86,0.00,CLR,,0.01,WeatherDisplay:10.37,2013-02-05 22:48:00,
2013-02-05 16:50:00,26.7,23.1,29.86,WNW,302,5.2,9.2,86,0.00,CLR,,0.01,WeatherDisplay:10.37,2013-02-05 22:50:00,
2013-02-05 16:52:00,26.7,23.1,29.86,North,359,4.3,11.5,86,0.00,CLR,,0.01,WeatherDisplay:10.37,2013-02-05 22:52:00,
2013-02-05 16:53:00,26.6,23.0,29.86,NNW,329,4.3,9.2,86,0.00,CLR,,0.01,WeatherDisplay:10.37,2013-02-05 22:53:00,
2013-02-05 16:54:00,26.6,23.0,29.86,WNW,301,5.5,10.4,86,0.00,CLR,,0.01,WeatherDisplay:10.37,2013-02-05 22:54:00,
2013-02-05 16:55:00,26.6,23.0,29.86,WNW,291,4.5,9.2,86,0.00,CLR,,0.01,WeatherDisplay:10.37,2013-02-05 22:55:00,
2013-02-05 16:57:00,26.6,23.0,29.86,WNW,291,3.3,6.9,86,0.00,CLR,,0.01,WeatherDisplay:10.37,2013-02-05 22:57:00,
2013-02-05 16:58:00,26.6,23.0,29.86,North,360,3.6,8.1,86,0.00,CLR,,0.01,WeatherDisplay:10.37,2013-02-05 22:58:00,
2013-02-05 16:59:00,26.6,23.0,29.86,NNW,339,3.1,6.5,86,0.00,CLR,,0.01,WeatherDisplay:10.37,2013-02-05 22:59:00,
2013-02-05 17:00:00,26.6,23.0,29.86,NW,319,5.3,9.2,86,0.00,CLR,,0.01,WeatherDisplay:10.37,2013-02-05 23:00:00,
2013-02-05 17:02:00,26.6,23.0,29.86,WNW,301,5.3,6.9,86,0.00,CLR,,0.01,WeatherDisplay:10.37,2013-02-05 23:02:00,
2013-02-05 17:03:00,26.6,23.0,29.87,NW,308,3.1,5.8,86,0.00,CLR,,0.01,WeatherDisplay:10.37,2013-02-05 23:03:00,
2013-02-05 17:04:00,26.6,23.0,29.87,NNW,339,4.8,6.9,86,0.00,CLR,,0.01,WeatherDisplay:10.37,2013-02-05 23:04:00,
2013-02-05 17:05:00,26.5,22.9,29.87,NW,315,6.5,8.1,86,0.00,CLR,,0.01,WeatherDisplay:10.37,2013-02-05 23:05:00,
2013-02-05 17:07:00,26.5,22.9,29.87,NW,322,5.0,8.8,86,0.00,CLR,,0.01,WeatherDisplay:10.37,2013-02-05 23:07:00,
2013-02-05 17:08:00,26.5,22.9,29.87,NNW,343,3.3,9.2,86,0.00,CLR,,0.01,WeatherDisplay:10.37,2013-02-05 23:08:00,
2013-02-05 17:09:00,26.4,22.8,29.87,NW,319,4.8,5.9,86,0.00,CLR,,0.01,WeatherDisplay:10.37,2013-02-05 23:09:00,
2013-02-05 17:10:00,26.4,22.8,29.87,North,0,4.5,6.9,86,0.00,CLR,,0.01,WeatherDisplay:10.37,2013-02-05 23:10:00,
2013-02-05 17:12:00,26.4,22.8,29.87,WNW,295,4.6,6.9,86,0.00,CLR,,0.01,WeatherDisplay:10.37,2013-02-05 23:12:00,
2013-02-05 17:13:00,26.5,22.9,29.87,NW,309,3.7,6.9,86,0.00,CLR,,0.01,WeatherDisplay:10.37,2013-02-05 23:13:00,
2013-02-05 17:14:00,26.4,22.8,29.88,NNW,342,3.7,6.9,86,0.00,CLR,,0.01,WeatherDisplay:10.37,2013-02-05 23:14:00,
2013-02-05 17:15:00,26.4,22.8,29.88,WNW,291,3.0,4.6,86,0.00,CLR,,0.01,WeatherDisplay:10.37,2013-02-05 23:15:00,
2013-02-05 17:17:00,26.4,23.1,29.88,NNW,342,3.7,6.7,87,0.00,CLR,,0.01,WeatherDisplay:10.37,2013-02-05 23:17:00,
2013-02-05 17:18:00,26.4,23.1,29.88,NNW,336,5.1,8.1,87,0.00,CLR,,0.01,WeatherDisplay:10.37,2013-02-05 23:18:00,
2013-02-05 17:19:00,26.4,22.8,29.88,North,360,5.4,9.6,86,0.00,CLR,,0.01,WeatherDisplay:10.37,2013-02-05 23:19:00,
2013-02-05 17:21:00,26.4,22.8,29.88,North,350,5.7,9.2,86,0.00,CLR,,0.01,WeatherDisplay:10.37,2013-02-05 23:21:00,
2013-02-05 17:22:00,26.4,22.8,29.88,WNW,301,4.8,8.1,86,0.00,CLR,,0.01,WeatherDisplay:10.37,2013-02-05 23:22:00,
2013-02-05 17:23:00,26.4,22.8,29.88,NNE,31,5.9,9.2,86,0.00,CLR,,0.01,WeatherDisplay:10.37,2013-02-05 23:23:00,
2013-02-05 17:25:00,26.3,22.7,29.88,NW,326,6.9,10.4,86,0.00,CLR,,0.01,WeatherDisplay:10.37,2013-02-05 23:25:00,
2013-02-05 17:26:00,26.3,22.7,29.88,NNW,329,5.6,8.8,86,0.00,CLR,,0.01,WeatherDisplay:10.37,2013-02-05 23:26:00,
2013-02-05 17:27:00,26.4,22.8,29.88,WNW,299,5.7,9.2,86,0.00,CLR,,0.01,WeatherDisplay:10.37,2013-02-05 23:27:00,
2013-02-05 17:28:00,26.3,22.7,29.88,NNW,330,7.7,11.5,86,0.00,CLR,,0.01,WeatherDisplay:10.37,2013-02-05 23:28:00,
2013-02-05 17:30:00,26.2,22.6,29.89,NNE,17,2.7,4.6,86,0.00,CLR,,0.01,WeatherDisplay:10.37,2013-02-05 23:30:00,
2013-02-05 17:31:00,26.3,22.7,29.89,West,265,6.8,15.0,86,0.00,CLR,,0.01,WeatherDisplay:10.37,2013-02-05 23:31:00,
2013-02-05 17:33:00,26.2,22.6,29.89,North,350,7.6,15.0,86,0.00,CLR,,0.01,WeatherDisplay:10.37,2013-02-05 23:33:00,
2013-02-05 17:35:00,26.2,22.6,29.89,WNW,288,8.1,12.7,86,0.00,CLR,,0.01,WeatherDisplay:10.37,2013-02-05 23:35:00,
2013-02-05 17:36:00,26.1,22.5,29.89,NW,309,5.7,11.5,86,0.00,CLR,,0.01,WeatherDisplay:10.37,2013-02-05 23:36:00,
2013-02-05 17:38:00,26.2,22.6,29.90,NNE,21,7.1,10.4,86,0.00,CLR,,0.01,WeatherDisplay:10.37,2013-02-05 23:38:00,
2013-02-05 17:40:00,26.1,22.2,29.90,WNW,291,4.6,8.1,85,0.00,CLR,,0.01,WeatherDisplay:10.37,2013-02-05 23:40:00,
2013-02-05 17:41:00,26.1,22.2,29.90,NW,326,6.2,12.7,85,0.00,CLR,,0.01,WeatherDisplay:10.37,2013-02-05 23:41:00,
2013-02-05 17:43:00,26.1,22.2,29.90,NNW,329,5.4,8.1,85,0.00,CLR,,0.01,WeatherDisplay:10.37,2013-02-05 23:43:00,
2013-02-05 17:45:00,26.1,22.2,29.90,NW,326,5.6,10.4,85,0.00,CLR,,0.01,WeatherDisplay:10.37,2013-02-05 23:45:00,
2013-02-05 17:46:00,26.1,22.2,29.90,WNW,296,4.2,9.2,85,0.00,CLR,,0.01,WeatherDisplay:10.37,2013-02-05 23:46:00,
2013-02-05 17:48:00,26.0,22.1,29.90,NNW,328,4.4,9.2,85,0.00,CLR,,0.01,WeatherDisplay:10.37,2013-02-05 23:48:00,
2013-02-05 17:50:00,26.0,22.1,29.90,NW,325,6.2,10.4,85,0.00,CLR,,0.01,WeatherDisplay:10.37,2013-02-05 23:50:00,
2013-02-05 17:51:00,26.0,22.1,29.90,NW,312,4.8,10.4,85,0.00,CLR,,0.01,WeatherDisplay:10.37,2013-02-05 23:51:00,
2013-02-05 17:53:00,26.0,22.1,29.90,NNE,17,4.8,4.8,85,0.00,CLR,,0.01,WeatherDisplay:10.37,2013-02-05 23:53:00,
2013-02-05 17:55:00,26.0,22.1,29.91,NW,326,3.9,5.8,85,0.00,CLR,,0.01,WeatherDisplay:10.37,2013-02-05 23:55:00,
2013-02-05 17:56:00,25.9,22.0,29.91,NW,323,2.9,4.8,85,0.00,CLR,,0.01,WeatherDisplay:10.37,2013-02-05 23:56:00,
2013-02-05 17:58:00,25.9,22.0,29.91,NNW,344,4.4,8.2,85,0.00,CLR,,0.01,WeatherDisplay:10.37,2013-02-05 23:58:00,
2013-02-05 18:00:00,25.9,22.0,29.91,North,0,5.3,8.1,85,0.00,CLR,,0.01,WeatherDisplay:10.37,2013-02-06 00:00:00,
2013-02-05 18:01:00,25.9,22.0,29.91,NW,323,5.2,9.2,85,0.00,CLR,,0.01,WeatherDisplay:10.37,2013-02-06 00:01:00,
2013-02-05 18:03:00,25.8,21.9,29.91,NNW,344,5.0,8.1,85,0.00,CLR,,0.01,WeatherDisplay:10.37,2013-02-06 00:03:00,
2013-02-05 18:04:00,25.8,21.9,29.91,North,1,5.0,8.1,85,0.00,CLR,,0.01,WeatherDisplay:10.37,2013-02-06 00:04:00,
2013-02-05 18:05:00,25.8,21.9,29.91,NNW,342,4.5,6.9,85,0.00,CLR,,0.01,WeatherDisplay:10.37,2013-02-06 00:05:00,
2013-02-05 18:06:00,25.8,21.6,29.91,NNW,330,6.7,9.2,84,0.00,CLR,,0.01,WeatherDisplay:10.37,2013-02-06 00:06:00,
2013-02-05 18:09:00,25.8,21.6,29.91,North,6,5.3,8.1,84,0.00,CLR,,0.01,WeatherDisplay:10.37,2013-02-06 00:09:00,
2013-02-05 18:10:00,25.7,21.5,29.91,NNW,346,4.7,9.9,84,0.00,CLR,,0.01,WeatherDisplay:10.37,2013-02-06 00:10:00,
2013-02-05 18:11:00,25.7,21.5,29.91,WNW,287,4.4,12.7,84,0.00,CLR,,0.01,WeatherDisplay:10.37,2013-02-06 00:11:00,
2013-02-05 18:14:00,25.6,21.4,29.92,WNW,296,4.4,9.2,84,0.00,CLR,,0.01,WeatherDisplay:10.37,2013-02-06 00:14:00,
2013-02-05 18:15:00,25.6,21.4,29.92,NW,320,4.9,8.1,84,0.00,CLR,,0.01,WeatherDisplay:10.37,2013-02-06 00:15:00,
2013-02-05 18:17:00,25.6,21.4,29.92,NNW,347,8.2,10.4,84,0.00,CLR,,0.01,WeatherDisplay:10.37,2013-02-06 00:17:00,
2013-02-05 18:19:00,25.6,21.4,29.92,NNE,21,5.1,10.4,84,0.00,CLR,,0.01,WeatherDisplay:10.37,2013-02-06 00:19:00,
2013-02-05 18:20:00,25.5,21.3,29.92,NW,304,5.6,10.4,84,0.00,CLR,,0.01,WeatherDisplay:10.37,2013-02-06 00:20:00,
2013-02-05 18:22:00,25.5,21.6,29.92,North,360,3.8,10.4,85,0.00,CLR,,0.01,WeatherDisplay:10.37,2013-02-06 00:22:00,
2013-02-05 18:24:00,25.5,21.3,29.93,WNW,287,5.4,9.2,84,0.00,CLR,,0.01,WeatherDisplay:10.37,2013-02-06 00:24:00,
2013-02-05 18:25:00,25.6,21.4,29.93,NW,323,6.3,10.4,84,0.00,CLR,,0.01,WeatherDisplay:10.37,2013-02-06 00:25:00,
2013-02-05 18:27:00,25.5,21.3,29.93,North,360,6.8,12.7,84,0.00,CLR,,0.01,WeatherDisplay:10.37,2013-02-06 00:27:00,
2013-02-05 18:29:00,25.5,21.3,29.93,North,349,4.3,8.1,84,0.00,CLR,,0.01,WeatherDisplay:10.37,2013-02-06 00:29:00,
2013-02-05 18:31:00,25.5,21.3,29.93,North,353,3.0,6.9,84,0.00,CLR,,0.01,WeatherDisplay:10.37,2013-02-06 00:31:00,
2013-02-05 18:32:00,25.5,21.3,29.93,NNE,23,3.1,5.8,84,0.00,CLR,,0.01,WeatherDisplay:10.37,2013-02-06 00:32:00,
2013-02-05 18:34:00,25.5,21.3,29.93,NNW,337,5.7,9.2,84,0.00,CLR,,0.01,WeatherDisplay:10.37,2013-02-06 00:34:00,
2013-02-05 18:36:00,25.5,21.3,29.93,NE,44,3.8,5.8,84,0.00,CLR,,0.01,WeatherDisplay:10.37,2013-02-06 00:36:00,
2013-02-05 18:37:00,25.4,21.2,29.93,North,360,2.8,6.0,84,0.00,CLR,,0.01,WeatherDisplay:10.37,2013-02-06 00:37:00,
2013-02-05 18:39:00,25.3,21.4,29.93,NW,325,2.9,7.0,85,0.00,CLR,,0.01,WeatherDisplay:10.37,2013-02-06 00:39:00,
2013-02-05 18:41:00,25.2,21.3,29.93,NNE,16,2.8,4.6,85,0.00,CLR,,0.01,WeatherDisplay:10.37,2013-02-06 00:41:00,
2013-02-05 18:42:00,25.3,21.4,29.93,North,356,1.8,5.8,85,0.00,CLR,,0.01,WeatherDisplay:10.37,2013-02-06 00:42:00,
2013-02-05 18:44:00,25.3,21.4,29.93,NW,313,1.1,3.7,85,0.00,CLR,,0.01,WeatherDisplay:10.37,2013-02-06 00:44:00,
2013-02-05 18:45:00,25.3,21.4,29.93,North,11,1.7,2.3,85,0.00,CLR,,0.01,WeatherDisplay:10.37,2013-02-06 00:45:00,
2013-02-05 18:46:00,25.2,21.3,29.93,NNE,30,1.6,5.8,85,0.00,CLR,,0.01,WeatherDisplay:10.37,2013-02-06 00:46:00,
2013-02-05 18:47:00,25.3,21.4,29.93,NNE,30,0.0,2.3,85,0.00,CLR,,0.01,WeatherDisplay:10.37,2013-02-06 00:47:00,
2013-02-05 18:49:00,25.2,21.3,29.93,NW,322,4.0,5.8,85,0.00,CLR,,0.01,WeatherDisplay:10.37,2013-02-06 00:49:00,
2013-02-05 18:50:00,25.2,21.3,29.93,WNW,296,3.1,5.8,85,0.00,CLR,,0.01,WeatherDisplay:10.37,2013-02-06 00:50:00,
2013-02-05 18:51:00,25.2,21.3,29.93,NE,40,1.9,4.7,85,0.00,CLR,,0.01,WeatherDisplay:10.37,2013-02-06 00:51:00,
2013-02-05 18:52:00,25.2,21.3,29.94,NNW,346,3.4,5.8,85,0.00,CLR,,0.01,WeatherDisplay:10.37,2013-02-06 00:52:00,
2013-02-05 18:54:00,25.1,21.2,29.94,NW,306,2.7,5.8,85,0.00,CLR,,0.01,WeatherDisplay:10.37,2013-02-06 00:54:00,
2013-02-05 18:55:00,25.2,21.3,29.94,North,11,2.3,4.6,85,0.00,CLR,,0.01,WeatherDisplay:10.37,2013-02-06 00:55:00,
2013-02-05 18:56:00,25.1,21.2,29.94,NNW,340,1.4,4.6,85,0.00,CLR,,0.01,WeatherDisplay:10.37,2013-02-06 00:56:00,
2013-02-05 18:58:00,25.1,21.2,29.94,North,0,2.8,4.6,85,0.00,CLR,,0.01,WeatherDisplay:10.37,2013-02-06 00:58:00,
2013-02-05 18:59:00,25.1,21.2,29.94,North,4,1.6,3.5,85,0.00,CLR,,0.01,WeatherDisplay:10.37,2013-02-06 00:59:00,
2013-02-05 19:00:00,25.1,21.2,29.94,WNW,298,2.7,5.8,85,0.00,CLR,,0.01,WeatherDisplay:10.37,2013-02-06 01:00:00,
2013-02-05 19:01:00,25.0,21.1,29.94,NNW,344,0.9,4.6,85,0.00,CLR,,0.01,WeatherDisplay:10.37,2013-02-06 01:01:00,
2013-02-05 19:03:00,25.0,21.1,29.95,NW,309,0.2,1.1,85,0.00,CLR,,0.01,WeatherDisplay:10.37,2013-02-06 01:03:00,
2013-02-05 19:04:00,25.0,21.1,29.94,NW,318,1.6,3.5,85,0.00,CLR,,0.01,WeatherDisplay:10.37,2013-02-06 01:04:00,
2013-02-05 19:05:00,24.9,21.0,29.94,WNW,285,2.4,4.6,85,0.00,CLR,,0.01,WeatherDisplay:10.37,2013-02-06 01:05:00,
2013-02-05 19:06:00,25.0,21.1,29.95,NNW,340,1.1,2.3,85,0.00,CLR,,0.01,WeatherDisplay:10.37,2013-02-06 01:06:00,
2013-02-05 19:08:00,24.9,21.0,29.94,North,11,3.3,5.8,85,0.00,CLR,,0.01,WeatherDisplay:10.37,2013-02-06 01:08:00,
2013-02-05 19:09:00,24.9,21.0,29.94,North,352,4.9,8.1,85,0.00,CLR,,0.01,WeatherDisplay:10.37,2013-02-06 01:09:00,
2013-02-05 19:10:00,24.9,21.0,29.95,NNW,342,3.8,6.9,85,0.00,CLR,,0.01,WeatherDisplay:10.37,2013-02-06 01:10:00,
2013-02-05 19:11:00,24.8,20.9,29.94,NNW,337,0.9,4.6,85,0.00,CLR,,0.01,WeatherDisplay:10.37,2013-02-06 01:11:00,
2013-02-05 19:13:00,24.9,21.0,29.94,NW,311,3.6,6.9,85,0.00,CLR,,0.01,WeatherDisplay:10.37,2013-02-06 01:13:00,
2013-02-05 19:14:00,24.7,20.8,29.95,NNW,344,3.5,5.8,85,0.00,CLR,,0.01,WeatherDisplay:10.37,2013-02-06 01:14:00,
2013-02-05 19:15:00,24.8,20.9,29.95,NE,38,3.5,5.8,85,0.00,CLR,,0.01,WeatherDisplay:10.37,2013-02-06 01:15:00,
2013-02-05 19:16:00,24.8,20.9,29.95,NNW,335,4.2,5.8,85,0.00,CLR,,0.01,WeatherDisplay:10.37,2013-02-06 01:16:00,
2013-02-05 19:18:00,24.8,20.9,29.95,NW,313,4.8,9.2,85,0.00,CLR,,0.01,WeatherDisplay:10.37,2013-02-06 01:18:00,
2013-02-05 19:19:00,24.7,20.6,29.95,NW,313,3.7,8.1,84,0.00,CLR,,0.01,WeatherDisplay:10.37,2013-02-06 01:19:00,
2013-02-05 19:20:00,24.7,20.6,29.95,NW,322,3.6,4.6,84,0.00,CLR,,0.01,WeatherDisplay:10.37,2013-02-06 01:20:00,
2013-02-05 19:21:00,24.7,20.6,29.95,NW,323,2.6,6.0,84,0.00,CLR,,0.01,WeatherDisplay:10.37,2013-02-06 01:21:00,
2013-02-05 19:23:00,24.7,20.8,29.95,WNW,298,4.4,6.9,85,0.00,CLR,,0.01,WeatherDisplay:10.37,2013-02-06 01:23:00,
2013-02-05 19:25:00,24.7,20.6,29.95,West,271,0.7,2.3,84,0.00,CLR,,0.01,WeatherDisplay:10.37,2013-02-06 01:25:00,
2013-02-05 19:27:00,24.6,20.7,29.95,WNW,302,1.6,3.6,85,0.00,CLR,,0.01,WeatherDisplay:10.37,2013-02-06 01:27:00,
2013-02-05 19:28:00,24.6,20.7,29.95,NNW,337,2.5,4.9,85,0.00,CLR,,0.01,WeatherDisplay:10.37,2013-02-06 01:28:00,
2013-02-05 19:30:00,24.6,20.7,29.95,NW,319,2.7,5.8,85,0.00,CLR,,0.01,WeatherDisplay:10.37,2013-02-06 01:30:00,
2013-02-05 19:32:00,24.6,20.5,29.95,NNW,346,4.4,8.1,84,0.00,CLR,,0.01,WeatherDisplay:10.37,2013-02-06 01:32:00,
2013-02-05 19:33:00,24.6,20.5,29.95,NNW,335,2.2,8.1,84,0.00,CLR,,0.01,WeatherDisplay:10.37,2013-02-06 01:33:00,
2013-02-05 19:35:00,24.6,20.5,29.95,NNW,346,3.4,5.8,84,0.00,CLR,,0.01,WeatherDisplay:10.37,2013-02-06 01:35:00,
2013-02-05 19:37:00,24.5,20.4,29.96,NW,311,2.8,10.4,84,0.00,CLR,,0.01,WeatherDisplay:10.37,2013-02-06 01:37:00,
2013-02-05 19:38:00,24.6,20.5,29.96,NNW,343,2.4,5.8,84,0.00,CLR,,0.01,WeatherDisplay:10.37,2013-02-06 01:38:00,
2013-02-05 19:40:00,24.5,20.4,29.96,NNE,21,1.4,6.9,84,0.00,CLR,,0.01,WeatherDisplay:10.37,2013-02-06 01:40:00,
2013-02-05 19:41:00,24.5,20.4,29.96,NNE,23,2.3,6.9,84,0.00,CLR,,0.01,WeatherDisplay:10.37,2013-02-06 01:41:00,
2013-02-05 19:42:00,24.4,20.3,29.96,NW,316,3.1,5.8,84,0.00,CLR,,0.01,WeatherDisplay:10.37,2013-02-06 01:42:00,
2013-02-05 19:43:00,24.4,20.3,29.96,NNW,340,4.8,6.9,84,0.00,CLR,,0.01,WeatherDisplay:10.37,2013-02-06 01:43:00,
2013-02-05 19:45:00,24.4,20.3,29.96,ENE,76,3.0,6.9,84,0.00,CLR,,0.01,WeatherDisplay:10.37,2013-02-06 01:45:00,
2013-02-05 19:46:00,24.4,20.3,29.96,North,359,1.8,3.5,84,0.00,CLR,,0.01,WeatherDisplay:10.37,2013-02-06 01:46:00,
2013-02-05 19:47:00,24.3,20.2,29.96,NE,55,4.3,5.8,84,0.00,CLR,,0.01,WeatherDisplay:10.37,2013-02-06 01:47:00,
2013-02-05 19:48:00,24.3,20.2,29.96,North,0,3.9,6.1,84,0.00,CLR,,0.01,WeatherDisplay:10.37,2013-02-06 01:48:00,
2013-02-05 19:50:00,24.2,20.1,29.96,NNW,346,4.9,6.9,84,0.00,CLR,,0.01,WeatherDisplay:10.37,2013-02-06 01:50:00,
2013-02-05 19:51:00,24.2,20.1,29.96,NE,52,3.3,8.1,84,0.00,CLR,,0.01,WeatherDisplay:10.37,2013-02-06 01:51:00,
2013-02-05 19:52:00,24.2,20.1,29.96,NNW,335,3.9,5.8,84,0.00,CLR,,0.01,WeatherDisplay:10.37,2013-02-06 01:52:00,
2013-02-05 19:54:00,24.0,19.9,29.96,NNW,340,3.3,6.9,84,0.00,CLR,,0.01,WeatherDisplay:10.37,2013-02-06 01:54:00,
2013-02-05 19:55:00,24.0,19.9,29.96,NNW,344,3.3,6.8,84,0.00,CLR,,0.01,WeatherDisplay:10.37,2013-02-06 01:55:00,
2013-02-05 19:56:00,23.9,19.8,29.96,NE,42,5.2,10.9,84,0.00,CLR,,0.01,WeatherDisplay:10.37,2013-02-06 01:56:00,
2013-02-05 19:57:00,23.9,19.8,29.96,NW,320,5.4,11.5,84,0.00,CLR,,0.01,WeatherDisplay:10.37,2013-02-06 01:57:00,
2013-02-05 19:59:00,23.9,19.8,29.97,North,360,3.1,8.1,84,0.00,CLR,,0.01,WeatherDisplay:10.37,2013-02-06 01:59:00,
2013-02-05 20:01:00,23.9,19.8,29.97,NW,320,3.0,5.8,84,0.00,CLR,,0.01,WeatherDisplay:10.37,2013-02-06 02:01:00,
2013-02-05 20:02:00,23.7,19.6,29.97,North,359,3.1,10.4,84,0.00,CLR,,0.01,WeatherDisplay:10.37,2013-02-06 02:02:00,
2013-02-05 20:04:00,23.8,19.7,29.97,NNW,346,2.1,4.6,84,0.00,CLR,,0.01,WeatherDisplay:10.37,2013-02-06 02:04:00,
2013-02-05 20:06:00,23.7,19.6,29.98,NNE,20,4.3,8.1,84,0.00,CLR,,0.01,WeatherDisplay:10.37,2013-02-06 02:06:00,
2013-02-05 20:08:00,23.6,19.5,29.98,NNE,18,5.7,6.9,84,0.00,CLR,,0.01,WeatherDisplay:10.37,2013-02-06 02:08:00,
2013-02-05 20:09:00,23.5,19.4,29.98,North,11,2.3,6.9,84,0.00,CLR,,0.01,WeatherDisplay:10.37,2013-02-06 02:09:00,
2013-02-05 20:11:00,23.5,19.4,29.98,North,8,4.6,6.9,84,0.00,CLR,,0.01,WeatherDisplay:10.37,2013-02-06 02:11:00,
2013-02-05 20:13:00,23.4,19.3,29.98,NE,40,5.0,8.1,84,0.00,CLR,,0.01,WeatherDisplay:10.37,2013-02-06 02:13:00,
2013-02-05 20:14:00,23.3,19.2,29.98,North,360,4.1,6.9,84,0.00,CLR,,0.01,WeatherDisplay:10.37,2013-02-06 02:14:00,
2013-02-05 20:16:00,23.3,19.2,29.98,NNW,344,5.9,9.2,84,0.00,CLR,,0.01,WeatherDisplay:10.37,2013-02-06 02:16:00,
2013-02-05 20:18:00,23.2,18.8,29.98,North,360,3.4,6.9,83,0.00,CLR,,0.01,WeatherDisplay:10.37,2013-02-06 02:18:00,
2013-02-05 20:19:00,23.3,18.9,29.98,NNE,27,4.4,6.9,83,0.00,CLR,,0.01,WeatherDisplay:10.37,2013-02-06 02:19:00,
2013-02-05 20:21:00,23.2,18.8,29.99,North,359,5.0,9.2,83,0.00,CLR,,0.01,WeatherDisplay:10.37,2013-02-06 02:21:00,
2013-02-05 20:23:00,23.1,19.0,29.99,NNW,343,0.0,2.3,84,0.00,CLR,,0.01,WeatherDisplay:10.37,2013-02-06 02:23:00,
2013-02-05 20:24:00,23.1,18.7,29.99,NE,55,2.1,5.5,83,0.00,CLR,,0.01,WeatherDisplay:10.37,2013-02-06 02:24:00,
2013-02-05 20:26:00,22.9,18.5,29.99,North,8,4.3,8.1,83,0.00,CLR,,0.01,WeatherDisplay:10.37,2013-02-06 02:26:00,
2013-02-05 20:27:00,22.9,18.5,29.99,NNE,18,3.8,8.1,83,0.00,CLR,,0.01,WeatherDisplay:10.37,2013-02-06 02:27:00,
2013-02-05 20:28:00,23.0,18.6,29.99,NNW,340,3.0,6.6,83,0.00,CLR,,0.01,WeatherDisplay:10.37,2013-02-06 02:28:00,
2013-02-05 20:29:00,22.9,18.5,29.99,North,360,5.3,9.2,83,0.00,CLR,,0.01,WeatherDisplay:10.37,2013-02-06 02:29:00,
2013-02-05 20:31:00,22.9,18.5,29.99,NNE,24,2.9,6.9,83,0.00,CLR,,0.01,WeatherDisplay:10.37,2013-02-06 02:31:00,
2013-02-05 20:32:00,22.9,18.5,29.99,North,349,4.2,9.2,83,0.00,CLR,,0.01,WeatherDisplay:10.37,2013-02-06 02:32:00,
2013-02-05 20:33:00,22.8,18.4,29.99,NNE,31,2.7,4.6,83,0.00,CLR,,0.01,WeatherDisplay:10.37,2013-02-06 02:33:00,
2013-02-05 20:34:00,22.8,18.4,29.99,North,11,5.0,8.1,83,0.00,CLR,,0.01,WeatherDisplay:10.37,2013-02-06 02:34:00,
2013-02-05 20:36:00,22.7,18.6,29.99,North,357,4.3,6.9,84,0.00,CLR,,0.01,WeatherDisplay:10.37,2013-02-06 02:36:00,
2013-02-05 20:37:00,22.7,18.6,29.99,NNE,32,4.8,8.1,84,0.00,CLR,,0.01,WeatherDisplay:10.37,2013-02-06 02:37:00,
2013-02-05 20:38:00,22.7,18.6,29.99,NNE,24,5.2,7.4,84,0.00,CLR,,0.01,WeatherDisplay:10.37,2013-02-06 02:38:00,
2013-02-05 20:39:00,22.7,18.6,29.99,NNE,18,6.0,8.1,84,0.00,CLR,,0.01,WeatherDisplay:10.37,2013-02-06 02:39:00,
2013-02-05 20:42:00,22.6,18.5,29.99,NNE,21,6.8,11.5,84,0.00,CLR,,0.01,WeatherDisplay:10.37,2013-02-06 02:42:00,
2013-02-05 20:43:00,22.5,18.4,29.99,North,6,3.0,6.9,84,0.00,CLR,,0.01,WeatherDisplay:10.37,2013-02-06 02:43:00,
2013-02-05 20:44:00,22.5,18.4,29.99,NNE,31,2.2,6.7,84,0.00,CLR,,0.01,WeatherDisplay:10.37,2013-02-06 02:44:00,
2013-02-05 20:47:00,22.4,18.3,29.99,North,1,5.8,8.1,84,0.00,CLR,,0.01,WeatherDisplay:10.37,2013-02-06 02:47:00,
2013-02-05 20:48:00,22.4,18.3,29.99,NNE,28,2.4,4.6,84,0.00,CLR,,0.01,WeatherDisplay:10.37,2013-02-06 02:48:00,
2013-02-05 20:49:00,22.4,18.3,29.99,NNE,18,4.3,6.9,84,0.00,CLR,,0.01,WeatherDisplay:10.37,2013-02-06 02:49:00,
2013-02-05 20:52:00,22.2,18.1,29.99,NE,37,2.8,5.8,84,0.00,CLR,,0.01,WeatherDisplay:10.37,2013-02-06 02:52:00,
2013-02-05 20:53:00,22.1,18.0,29.99,NE,42,6.0,8.1,84,0.00,CLR,,0.01,WeatherDisplay:10.37,2013-02-06 02:53:00,
2013-02-05 20:54:00,22.2,18.1,29.99,NE,44,5.5,9.2,84,0.00,CLR,,0.01,WeatherDisplay:10.37,2013-02-06 02:54:00,
2013-02-05 20:57:00,22.1,18.0,29.99,NE,40,3.7,5.8,84,0.00,CLR,,0.01,WeatherDisplay:10.37,2013-02-06 02:57:00,
2013-02-05 20:58:00,22.0,17.9,29.99,North,360,3.0,5.8,84,0.00,CLR,,0.01,WeatherDisplay:10.37,2013-02-06 02:58:00,
2013-02-05 20:59:00,21.9,17.8,29.99,North,354,3.8,6.9,84,0.00,CLR,,0.01,WeatherDisplay:10.37,2013-02-06 02:59:00,
2013-02-05 21:02:00,21.9,17.8,30.00,NNE,27,6.2,8.1,84,0.00,CLR,,0.01,WeatherDisplay:10.37,2013-02-06 03:02:00,
2013-02-05 21:03:00,21.9,17.8,30.00,North,3,4.3,6.9,84,0.00,CLR,,0.01,WeatherDisplay:10.37,2013-02-06 03:03:00,
2013-02-05 21:04:00,21.8,17.7,30.00,North,8,4.9,4.9,84,0.00,CLR,,0.01,WeatherDisplay:10.37,2013-02-06 03:04:00,
2013-02-05 21:07:00,21.6,17.5,30.00,NNE,17,3.7,6.6,84,0.00,CLR,,0.01,WeatherDisplay:10.37,2013-02-06 03:07:00,
2013-02-05 21:08:00,21.6,17.5,30.00,NNE,23,4.4,6.9,84,0.00,CLR,,0.01,WeatherDisplay:10.37,2013-02-06 03:08:00,
2013-02-05 21:09:00,21.6,17.5,30.00,NNW,337,5.3,10.4,84,0.00,CLR,,0.01,WeatherDisplay:10.37,2013-02-06 03:09:00,
2013-02-05 21:12:00,21.6,17.5,30.00,ENE,58,3.6,6.9,84,0.00,CLR,,0.01,WeatherDisplay:10.37,2013-02-06 03:12:00,
2013-02-05 21:13:00,21.5,17.4,30.00,North,360,4.8,8.1,84,0.00,CLR,,0.01,WeatherDisplay:10.37,2013-02-06 03:13:00,
2013-02-05 21:14:00,21.4,17.3,30.00,North,4,1.6,8.1,84,0.00,CLR,,0.01,WeatherDisplay:10.37,2013-02-06 03:14:00,
2013-02-05 21:17:00,21.4,17.3,30.00,North,353,1.8,3.5,84,0.00,CLR,,0.01,WeatherDisplay:10.37,2013-02-06 03:17:00,
2013-02-05 21:18:00,21.3,17.2,30.00,NNE,30,1.4,3.0,84,0.00,CLR,,0.01,WeatherDisplay:10.37,2013-02-06 03:18:00,
2013-02-05 21:19:00,21.1,17.0,30.00,NNE,28,2.7,4.6,84,0.00,CLR,,0.01,WeatherDisplay:10.37,2013-02-06 03:19:00,
2013-02-05 21:22:00,21.1,17.0,30.01,NE,51,4.5,6.1,84,0.00,CLR,,0.01,WeatherDisplay:10.37,2013-02-06 03:22:00,
2013-02-05 21:23:00,21.2,17.1,30.01,North,7,3.4,6.9,84,0.00,CLR,,0.01,WeatherDisplay:10.37,2013-02-06 03:23:00,
2013-02-05 21:24:00,21.1,17.0,30.01,NNW,329,3.2,6.9,84,0.00,CLR,,0.01,WeatherDisplay:10.37,2013-02-06 03:24:00,
2013-02-05 21:27:00,20.9,16.8,30.01,NNE,25,4.0,5.8,84,0.00,CLR,,0.01,WeatherDisplay:10.37,2013-02-06 03:27:00,
2013-02-05 21:28:00,21.0,16.9,30.01,North,0,2.6,4.6,84,0.00,CLR,,0.01,WeatherDisplay:10.37,2013-02-06 03:28:00,
2013-02-05 21:29:00,20.9,16.8,30.01,NNE,14,3.2,7.2,84,0.00,CLR,,0.01,WeatherDisplay:10.37,2013-02-06 03:29:00,
2013-02-05 21:30:00,20.9,16.8,30.01,NNE,31,4.6,4.8,84,0.00,CLR,,0.01,WeatherDisplay:10.37,2013-02-06 03:30:00,
2013-02-05 21:32:00,20.8,16.7,30.01,North,354,1.5,3.5,84,0.00,CLR,,0.01,WeatherDisplay:10.37,2013-02-06 03:32:00,
2013-02-05 21:33:00,20.8,16.7,30.01,NNE,17,2.5,6.4,84,0.00,CLR,,0.01,WeatherDisplay:10.37,2013-02-06 03:33:00,
2013-02-05 21:34:00,20.6,16.5,30.01,North,10,4.0,6.9,84,0.00,CLR,,0.01,WeatherDisplay:10.37,2013-02-06 03:34:00,
2013-02-05 21:35:00,20.8,16.7,30.01,North,360,3.3,6.9,84,0.00,CLR,,0.01,WeatherDisplay:10.37,2013-02-06 03:35:00,
2013-02-05 21:37:00,20.7,16.6,30.01,NNW,343,3.7,5.6,84,0.00,CLR,,0.01,WeatherDisplay:10.37,2013-02-06 03:37:00,
2013-02-05 21:38:00,20.6,16.5,30.01,North,353,2.1,5.8,84,0.00,CLR,,0.01,WeatherDisplay:10.37,2013-02-06 03:38:00,
2013-02-05 21:39:00,20.7,16.6,30.01,North,1,1.5,3.5,84,0.00,CLR,,0.01,WeatherDisplay:10.37,2013-02-06 03:39:00,
2013-02-05 21:40:00,20.6,16.5,30.01,North,1,0.7,3.5,84,0.00,CLR,,0.01,WeatherDisplay:10.37,2013-02-06 03:40:00,
2013-02-05 21:42:00,20.6,16.5,30.01,North,356,0.1,6.9,84,0.00,CLR,,0.01,WeatherDisplay:10.37,2013-02-06 03:42:00,
2013-02-05 21:43:00,20.5,16.4,30.01,North,356,0.0,0.0,84,0.00,CLR,,0.01,WeatherDisplay:10.37,2013-02-06 03:43:00,
2013-02-05 21:44:00,20.4,16.3,30.01,North,356,0.0,0.0,84,0.00,CLR,,0.01,WeatherDisplay:10.37,2013-02-06 03:44:00,
2013-02-05 21:45:00,20.4,16.3,30.01,North,356,0.0,0.0,84,0.00,CLR,,0.01,WeatherDisplay:10.37,2013-02-06 03:45:00,
2013-02-05 21:47:00,20.3,16.2,30.01,NNE,27,3.3,6.9,84,0.00,CLR,,0.01,WeatherDisplay:10.37,2013-02-06 03:47:00,
2013-02-05 21:48:00,20.2,16.1,30.02,North,0,2.7,6.5,84,0.00,CLR,,0.01,WeatherDisplay:10.37,2013-02-06 03:48:00,
2013-02-05 21:49:00,20.3,16.2,30.02,NNW,342,3.6,6.9,84,0.00,CLR,,0.01,WeatherDisplay:10.37,2013-02-06 03:49:00,
2013-02-05 21:50:00,20.3,16.2,30.02,NNW,347,2.4,5.8,84,0.00,CLR,,0.01,WeatherDisplay:10.37,2013-02-06 03:50:00,
2013-02-05 21:52:00,20.2,16.1,30.02,North,0,0.5,4.6,84,0.00,CLR,,0.01,WeatherDisplay:10.37,2013-02-06 03:52:00,
2013-02-05 21:53:00,20.0,15.9,30.02,North,0,0.0,0.0,84,0.00,CLR,,0.01,WeatherDisplay:10.37,2013-02-06 03:53:00,
2013-02-05 21:55:00,20.0,15.9,30.02,North,0,0.0,0.0,84,0.00,CLR,,0.01,WeatherDisplay:10.37,2013-02-06 03:55:00,
2013-02-05 21:57:00,20.0,15.9,30.02,NW,315,2.0,3.5,84,0.00,CLR,,0.01,WeatherDisplay:10.37,2013-02-06 03:57:00,
2013-02-05 21:59:00,20.0,15.9,30.02,NW,315,0.0,4.6,84,0.00,CLR,,0.01,WeatherDisplay:10.37,2013-02-06 03:59:00,
2013-02-05 22:00:00,19.8,15.7,30.02,NW,315,0.0,0.0,84,0.00,CLR,,0.01,WeatherDisplay:10.37,2013-02-06 04:00:00,
2013-02-05 22:03:00,19.8,15.7,30.02,NW,315,0.0,0.0,84,0.00,CLR,,0.01,WeatherDisplay:10.37,2013-02-06 04:03:00,
2013-02-05 22:04:00,19.7,15.6,30.02,NW,315,0.0,0.0,84,0.00,CLR,,0.01,WeatherDisplay:10.37,2013-02-06 04:04:00,
2013-02-05 22:05:00,19.7,15.6,30.02,NNE,24,1.2,2.3,84,0.00,CLR,,0.01,WeatherDisplay:10.37,2013-02-06 04:05:00,
2013-02-05 22:08:00,19.4,15.4,30.02,North,11,0.6,2.3,84,0.00,CLR,,0.01,WeatherDisplay:10.37,2013-02-06 04:08:00,
2013-02-05 22:09:00,19.5,15.5,30.02,North,11,0.6,2.3,84,0.00,CLR,,0.01,WeatherDisplay:10.37,2013-02-06 04:09:00,
2013-02-05 22:10:00,19.3,15.3,30.02,North,11,0.0,0.0,84,0.00,CLR,,0.01,WeatherDisplay:10.37,2013-02-06 04:10:00,
2013-02-05 22:13:00,19.1,15.1,30.02,North,11,0.0,0.0,84,0.00,CLR,,0.01,WeatherDisplay:10.37,2013-02-06 04:13:00,
2013-02-05 22:14:00,18.9,14.9,30.02,North,11,0.0,0.0,84,0.00,CLR,,0.01,WeatherDisplay:10.37,2013-02-06 04:14:00,
2013-02-05 22:15:00,18.8,14.8,30.02,North,10,0.8,3.7,84,0.00,CLR,,0.01,WeatherDisplay:10.37,2013-02-06 04:15:00,
2013-02-05 22:16:00,18.8,14.8,30.02,NNE,21,1.0,3.7,84,0.00,CLR,,0.01,WeatherDisplay:10.37,2013-02-06 04:16:00,
2013-02-05 22:18:00,18.6,14.6,30.02,NW,315,0.0,2.3,84,0.00,CLR,,0.01,WeatherDisplay:10.37,2013-02-06 04:18:00,
2013-02-05 22:19:00,18.6,14.6,30.02,NW,315,0.0,0.0,84,0.00,CLR,,0.01,WeatherDisplay:10.37,2013-02-06 04:19:00,
2013-02-05 22:21:00,18.5,14.5,30.02,NW,315,0.0,0.0,84,0.00,CLR,,0.01,WeatherDisplay:10.37,2013-02-06 04:21:00,
2013-02-05 22:23:00,18.3,14.3,30.02,NW,315,0.0,0.0,84,0.00,CLR,,0.01,WeatherDisplay:10.37,2013-02-06 04:23:00,
2013-02-05 22:24:00,18.4,14.4,30.02,NW,315,0.0,0.0,84,0.00,CLR,,0.01,WeatherDisplay:10.37,2013-02-06 04:24:00,
2013-02-05 22:26:00,18.2,14.2,30.02,NW,315,0.0,0.0,84,0.00,CLR,,0.01,WeatherDisplay:10.37,2013-02-06 04:26:00,
2013-02-05 22:29:00,17.9,13.9,30.03,NW,315,0.0,0.0,84,0.00,CLR,,0.01,WeatherDisplay:10.37,2013-02-06 04:29:00,
2013-02-05 22:31:00,17.7,13.7,30.03,NW,315,0.0,0.0,84,0.00,CLR,,0.01,WeatherDisplay:10.37,2013-02-06 04:31:00,
2013-02-05 22:34:00,17.4,13.4,30.03,NW,315,0.0,0.0,84,0.00,CLR,,0.01,WeatherDisplay:10.37,2013-02-06 04:34:00,
2013-02-05 22:36:00,17.2,13.2,30.03,NW,315,0.0,0.0,84,0.00,CLR,,0.01,WeatherDisplay:10.37,2013-02-06 04:36:00,
2013-02-05 22:39:00,16.7,12.7,30.03,NW,315,0.0,0.0,84,0.00,CLR,,0.01,WeatherDisplay:10.37,2013-02-06 04:39:00,
2013-02-05 22:41:00,16.6,12.6,30.03,NW,315,0.0,0.0,84,0.00,CLR,,0.01,WeatherDisplay:10.37,2013-02-06 04:41:00,
2013-02-05 22:44:00,16.2,12.5,30.03,NW,315,0.0,0.0,85,0.00,CLR,,0.01,WeatherDisplay:10.37,2013-02-06 04:44:00,
2013-02-05 22:46:00,16.1,12.4,30.03,NW,315,0.0,0.0,85,0.00,CLR,,0.01,WeatherDisplay:10.37,2013-02-06 04:46:00,
2013-02-05 22:49:00,15.9,12.2,30.04,West,278,0.5,2.3,85,0.00,CLR,,0.01,WeatherDisplay:10.37,2013-02-06 04:49:00,
2013-02-05 22:51:00,15.7,12.0,30.03,West,278,0.0,0.0,85,0.00,CLR,,0.01,WeatherDisplay:10.37,2013-02-06 04:51:00,
2013-02-05 22:54:00,15.5,11.8,30.03,West,278,0.0,0.0,85,0.00,CLR,,0.01,WeatherDisplay:10.37,2013-02-06 04:54:00,
2013-02-05 22:55:00,15.4,11.7,30.03,West,278,0.0,0.0,85,0.00,CLR,,0.01,WeatherDisplay:10.37,2013-02-06 04:55:00,
2013-02-05 22:56:00,15.3,11.9,30.03,West,278,0.0,0.0,86,0.00,CLR,,0.01,WeatherDisplay:10.37,2013-02-06 04:56:00,
2013-02-05 22:59:00,15.1,11.7,30.04,West,278,0.0,0.0,86,0.00,CLR,,0.01,WeatherDisplay:10.37,2013-02-06 04:59:00,
2013-02-05 23:00:00,15.0,11.6,30.04,West,278,0.0,0.0,86,0.00,CLR,,0.01,WeatherDisplay:10.37,2013-02-06 05:00:00,
2013-02-05 23:05:00,14.6,11.2,30.04,West,278,0.0,0.0,86,0.00,CLR,,0.01,WeatherDisplay:10.37,2013-02-06 05:05:00,
2013-02-05 23:10:00,14.0,10.6,30.04,West,278,0.0,0.0,86,0.00,CLR,,0.01,WeatherDisplay:10.37,2013-02-06 05:10:00,
2013-02-05 23:11:00,13.9,10.5,30.04,West,278,0.0,0.0,86,0.00,CLR,,0.01,WeatherDisplay:10.37,2013-02-06 05:11:00,
2013-02-05 23:15:00,13.3,9.9,30.04,West,278,0.0,0.0,86,0.00,CLR,,0.01,WeatherDisplay:10.37,2013-02-06 05:15:00,
2013-02-05 23:16:00,13.4,10.0,30.04,West,278,0.0,0.0,86,0.00,CLR,,0.01,WeatherDisplay:10.37,2013-02-06 05:16:00,
2013-02-05 23:20:00,13.2,9.8,30.05,West,278,0.0,0.0,86,0.00,CLR,,0.01,WeatherDisplay:10.37,2013-02-06 05:20:00,
2013-02-05 23:21:00,12.8,9.4,30.04,West,278,0.0,0.0,86,0.00,CLR,,0.01,WeatherDisplay:10.37,2013-02-06 05:21:00,
2013-02-05 23:25:00,12.5,9.1,30.05,West,278,0.0,0.0,86,0.00,CLR,,0.01,WeatherDisplay:10.37,2013-02-06 05:25:00,
2013-02-05 23:26:00,12.6,9.2,30.05,West,278,0.0,0.0,86,0.00,CLR,,0.01,WeatherDisplay:10.37,2013-02-06 05:26:00,
2013-02-05 23:27:00,12.5,9.1,30.05,West,278,0.0,0.0,86,0.00,CLR,,0.01,WeatherDisplay:10.37,2013-02-06 05:27:00,
2013-02-05 23:31:00,12.0,8.6,30.05,West,278,0.0,0.0,86,0.00,CLR,,0.01,WeatherDisplay:10.37,2013-02-06 05:31:00,
2013-02-05 23:32:00,11.9,8.8,30.05,West,278,0.0,0.0,87,0.00,CLR,,0.01,WeatherDisplay:10.37,2013-02-06 05:32:00,
2013-02-05 23:36:00,11.7,8.6,30.06,West,278,0.0,0.0,87,0.00,CLR,,0.01,WeatherDisplay:10.37,2013-02-06 05:36:00,
2013-02-05 23:37:00,11.4,8.3,30.06,West,278,0.0,0.0,87,0.00,CLR,,0.01,WeatherDisplay:10.37,2013-02-06 05:37:00,
2013-02-05 23:41:00,11.3,8.2,30.06,West,278,0.0,0.0,87,0.00,CLR,,0.01,WeatherDisplay:10.37,2013-02-06 05:41:00,
2013-02-05 23:42:00,11.1,8.0,30.06,West,278,0.0,0.0,87,0.00,CLR,,0.01,WeatherDisplay:10.37,2013-02-06 05:42:00,
2013-02-05 23:46:00,10.7,7.6,30.06,West,278,0.0,0.0,87,0.00,CLR,,0.01,WeatherDisplay:10.37,2013-02-06 05:46:00,
2013-02-05 23:47:00,10.8,7.7,30.06,West,278,0.0,0.0,87,0.00,CLR,,0.01,WeatherDisplay:10.37,2013-02-06 05:47:00,
2013-02-05 23:48:00,10.7,7.6,30.06,West,278,0.0,0.0,87,0.00,CLR,,0.01,WeatherDisplay:10.37,2013-02-06 05:48:00,
2013-02-05 23:51:00,10.5,7.6,30.06,West,278,0.0,0.0,88,0.00,CLR,,0.01,WeatherDisplay:10.37,2013-02-06 05:51:00,
2013-02-05 23:52:00,10.5,7.6,30.06,West,278,0.0,0.0,88,0.00,CLR,,0.01,WeatherDisplay:10.37,2013-02-06 05:52:00,
2013-02-05 23:53:00,10.3,7.5,30.06,West,278,0.0,0.0,88,0.00,CLR,,0.01,WeatherDisplay:10.37,2013-02-06 05:53:00,
2013-02-05 23:57:00,10.1,7.3,30.06,West,278,0.0,0.0,88,0.00,CLR,,0.01,WeatherDisplay:10.37,2013-02-06 05:57:00,
2013-02-05 23:58:00,10.2,7.4,30.06,West,278,0.0,0.0,88,0.00,CLR,,0.01,WeatherDisplay:10.37,2013-02-06 05:58:00,